PWSweather.com
Personal Weather Stations
Station Observations
DL5ARK
SonnebergDE

SonnebergDE

Lat: 50.34904861, Lon: 11.18112087

Elevation: 1214

Station Type: Selfmade

http://www.sumbarg.de

High Low Average
Temperature 44.3°F6.8°F 22.2°F-5.4°F 31.7°F-0.2°F
Dew Point 32.6°F0.3°F 26.0°F-3.3°F 29.1°F-1.6°F
Winds 11.0 mph -17.7 mph - Calm Calm 1.9 mph 3.1 mph
Wind Gusts 11.1 mph17.9 mph -- 1.9 mph3.1 mph
Humidity 81% 39% 66%
Pressure 30.75 in1041.30 in 30.66 in1038.30 in -
Precipitation 0.00 in0.00 in - -
Hour Temp Dew Point Humidity Winds Wind Gusts Pressure Precip Precip Rate Daily Precip Total
12:01 AM 31.4°F-0.3°C 32.6°F0.3°C 80% 7.7 mph SE12.4 kmh SE 7.7 mph12.4 kmh 30.72 in1040.3 mb 0.00 in0.0 mm 0.00 in0.0 mm 0.00 in0.0 mm
12:04 AM 31.4°F-0.3°C 31.9°F-0.1°C 80% 7.7 mph NNW12.4 kmh NNW 7.7 mph12.4 kmh 30.72 in1040.3 mb 0.00 in0.0 mm 0.00 in0.0 mm 0.00 in0.0 mm
12:07 AM 31.3°F-0.4°C 32.1°F0.1°C 80% 8.5 mph SE13.7 kmh SE 8.6 mph13.8 kmh 30.71 in1040.0 mb 0.00 in0.0 mm 0.00 in0.0 mm 0.00 in0.0 mm
12:10 AM 31.4°F-0.3°C 31.8°F-0.1°C 79% 7.1 mph SE11.4 kmh SE 7.2 mph11.6 kmh 30.71 in1040.0 mb 0.00 in0.0 mm 0.00 in0.0 mm 0.00 in0.0 mm
12:13 AM 31.2°F-0.4°C 31.5°F-0.3°C 80% 10.1 mph SE16.3 kmh SE 10.2 mph16.4 kmh 30.71 in1040.0 mb 0.00 in0.0 mm 0.00 in0.0 mm 0.00 in0.0 mm
12:16 AM 31.0°F-0.6°C 31.5°F-0.3°C 80% 7.3 mph ESE11.7 kmh ESE 7.3 mph11.7 kmh 30.72 in1040.3 mb 0.00 in0.0 mm 0.00 in0.0 mm 0.00 in0.0 mm
12:19 AM 30.8°F-0.7°C 31.9°F-0.1°C 80% 7.1 mph ESE11.4 kmh ESE 7.1 mph11.4 kmh 30.72 in1040.3 mb 0.00 in0.0 mm 0.00 in0.0 mm 0.00 in0.0 mm
12:22 AM 30.8°F-0.7°C 31.8°F-0.1°C 80% 8.8 mph ESE14.2 kmh ESE 8.9 mph14.3 kmh 30.71 in1040.0 mb 0.00 in0.0 mm 0.00 in0.0 mm 0.00 in0.0 mm
12:25 AM 30.7°F-0.7°C 31.8°F-0.1°C 80% 6.8 mph ESE10.9 kmh ESE 6.9 mph11.1 kmh 30.71 in1040.0 mb 0.00 in0.0 mm 0.00 in0.0 mm 0.00 in0.0 mm
12:28 AM 30.9°F-0.6°C 31.8°F-0.1°C 80% 8.1 mph SE13.0 kmh SE 8.2 mph13.2 kmh 30.71 in1040.0 mb 0.00 in0.0 mm 0.00 in0.0 mm 0.00 in0.0 mm
12:31 AM 30.8°F-0.7°C 31.9°F-0.1°C 80% 6.3 mph NNW10.1 kmh NNW 6.4 mph10.3 kmh 30.71 in1040.0 mb 0.00 in0.0 mm 0.00 in0.0 mm 0.00 in0.0 mm
12:34 AM 30.5°F-0.8°C 32.0°F0.0°C 80% 8.7 mph ESE14.0 kmh ESE 8.8 mph14.2 kmh 30.71 in1040.0 mb 0.00 in0.0 mm 0.00 in0.0 mm 0.00 in0.0 mm
12:37 AM 30.4°F-0.9°C 31.8°F-0.1°C 80% 8.9 mph NNW14.3 kmh NNW 9.0 mph14.5 kmh 30.72 in1040.3 mb 0.00 in0.0 mm 0.00 in0.0 mm 0.00 in0.0 mm
12:40 AM 30.1°F-1.1°C 31.7°F-0.2°C 80% 2.8 mph E4.5 kmh E 2.8 mph4.5 kmh 30.71 in1040.0 mb 0.00 in0.0 mm 0.00 in0.0 mm 0.00 in0.0 mm
12:43 AM 30.1°F-1.1°C 31.8°F-0.1°C 79% 8.9 mph ESE14.3 kmh ESE 8.9 mph14.3 kmh 30.71 in1040.0 mb 0.00 in0.0 mm 0.00 in0.0 mm 0.00 in0.0 mm
12:46 AM 30.1°F-1.1°C 31.3°F-0.4°C 80% 7.7 mph ESE12.4 kmh ESE 7.8 mph12.6 kmh 30.72 in1040.3 mb 0.00 in0.0 mm 0.00 in0.0 mm 0.00 in0.0 mm
12:49 AM 30.0°F-1.1°C 31.5°F-0.3°C 80% 8.1 mph ESE13.0 kmh ESE 8.1 mph13.0 kmh 30.71 in1040.0 mb 0.00 in0.0 mm 0.00 in0.0 mm 0.00 in0.0 mm
12:52 AM 30.1°F-1.1°C 31.4°F-0.3°C 81% 7.7 mph ESE12.4 kmh ESE 7.7 mph12.4 kmh 30.71 in1040.0 mb 0.00 in0.0 mm 0.00 in0.0 mm 0.00 in0.0 mm
12:55 AM 29.8°F-1.2°C 31.5°F-0.3°C 81% 9.4 mph SE15.1 kmh SE 9.5 mph15.3 kmh 30.71 in1040.0 mb 0.00 in0.0 mm 0.00 in0.0 mm 0.00 in0.0 mm
12:58 AM 30.0°F-1.1°C 31.5°F-0.3°C 81% 10.9 mph SE17.5 kmh SE 10.9 mph17.5 kmh 30.71 in1040.0 mb 0.00 in0.0 mm 0.00 in0.0 mm 0.00 in0.0 mm
01:01 AM 29.9°F-1.2°C 31.4°F-0.3°C 81% 5.3 mph NNW8.5 kmh NNW 5.3 mph8.5 kmh 30.71 in1040.0 mb 0.00 in0.0 mm 0.00 in0.0 mm 0.00 in0.0 mm
01:04 AM 29.4°F-1.4°C 31.5°F-0.3°C 81% 3.2 mph NNW5.1 kmh NNW 3.3 mph5.3 kmh 30.71 in1040.0 mb 0.00 in0.0 mm 0.00 in0.0 mm 0.00 in0.0 mm
01:07 AM 29.4°F-1.4°C 31.5°F-0.3°C 80% 6.4 mph ESE10.3 kmh ESE 6.4 mph10.3 kmh 30.71 in1040.0 mb 0.00 in0.0 mm 0.00 in0.0 mm 0.00 in0.0 mm
01:10 AM 29.3°F-1.5°C 31.6°F-0.2°C 81% 4.8 mph NNW7.7 kmh NNW 4.9 mph7.9 kmh 30.71 in1040.0 mb 0.00 in0.0 mm 0.00 in0.0 mm 0.00 in0.0 mm
01:13 AM 29.5°F-1.4°C 31.4°F-0.3°C 80% 5.1 mph NNW8.2 kmh NNW 5.1 mph8.2 kmh 30.71 in1040.0 mb 0.00 in0.0 mm 0.00 in0.0 mm 0.00 in0.0 mm
01:16 AM 28.7°F-1.8°C 31.8°F-0.1°C 80% 4.0 mph NNW6.4 kmh NNW 4.1 mph6.6 kmh 30.71 in1040.0 mb 0.00 in0.0 mm 0.00 in0.0 mm 0.00 in0.0 mm
01:19 AM 29.4°F-1.4°C 31.4°F-0.3°C 80% 6.5 mph SE10.5 kmh SE 6.5 mph10.5 kmh 30.71 in1040.0 mb 0.00 in0.0 mm 0.00 in0.0 mm 0.00 in0.0 mm
01:22 AM 29.0°F-1.7°C 31.7°F-0.2°C 81% Calm Calm -- 30.71 in1040.0 mb 0.00 in0.0 mm 0.00 in0.0 mm 0.00 in0.0 mm
01:25 AM 28.6°F-1.9°C 31.5°F-0.3°C 80% 5.6 mph NNW9.0 kmh NNW 5.7 mph9.2 kmh 30.71 in1040.0 mb 0.00 in0.0 mm 0.00 in0.0 mm 0.00 in0.0 mm
01:28 AM 28.6°F-1.9°C 31.4°F-0.3°C 80% Calm Calm -- 30.71 in1040.0 mb 0.00 in0.0 mm 0.00 in0.0 mm 0.00 in0.0 mm
01:31 AM 28.1°F-2.2°C 31.2°F-0.4°C 79% Calm Calm -- 30.71 in1040.0 mb 0.00 in0.0 mm 0.00 in0.0 mm 0.00 in0.0 mm
01:34 AM 28.2°F-2.1°C 31.3°F-0.4°C 79% 5.6 mph ESE9.0 kmh ESE 5.6 mph9.0 kmh 30.71 in1040.0 mb 0.00 in0.0 mm 0.00 in0.0 mm 0.00 in0.0 mm
01:37 AM 28.3°F-2.1°C 31.3°F-0.4°C 80% 2.8 mph E4.5 kmh E 2.9 mph4.7 kmh 30.71 in1040.0 mb 0.00 in0.0 mm 0.00 in0.0 mm 0.00 in0.0 mm
01:40 AM 29.1°F-1.6°C 31.0°F-0.6°C 80% 8.7 mph ESE14.0 kmh ESE 8.8 mph14.2 kmh 30.71 in1040.0 mb 0.00 in0.0 mm 0.00 in0.0 mm 0.00 in0.0 mm
01:43 AM 29.0°F-1.7°C 31.3°F-0.4°C 80% 6.1 mph ESE9.8 kmh ESE 6.1 mph9.8 kmh 30.71 in1040.0 mb 0.00 in0.0 mm 0.00 in0.0 mm 0.00 in0.0 mm
01:46 AM 29.2°F-1.6°C 30.7°F-0.7°C 79% 8.0 mph ESE12.9 kmh ESE 8.0 mph12.9 kmh 30.71 in1040.0 mb 0.00 in0.0 mm 0.00 in0.0 mm 0.00 in0.0 mm
01:49 AM 29.2°F-1.6°C 30.7°F-0.7°C 79% 7.0 mph SE11.3 kmh SE 7.0 mph11.3 kmh 30.71 in1040.0 mb 0.00 in0.0 mm 0.00 in0.0 mm 0.00 in0.0 mm
01:52 AM 29.3°F-1.5°C 31.1°F-0.5°C 81% 8.5 mph NNW13.7 kmh NNW 8.6 mph13.8 kmh 30.71 in1040.0 mb 0.00 in0.0 mm 0.00 in0.0 mm 0.00 in0.0 mm
01:55 AM 29.4°F-1.4°C 30.8°F-0.7°C 80% 8.0 mph ESE12.9 kmh ESE 8.0 mph12.9 kmh 30.71 in1040.0 mb 0.00 in0.0 mm 0.00 in0.0 mm 0.00 in0.0 mm
01:58 AM 29.0°F-1.7°C 31.1°F-0.5°C 80% 10.4 mph ESE16.7 kmh ESE 10.4 mph16.7 kmh 30.71 in1040.0 mb 0.00 in0.0 mm 0.00 in0.0 mm 0.00 in0.0 mm
02:01 AM 29.5°F-1.4°C 30.4°F-0.9°C 79% 8.5 mph NNW13.7 kmh NNW 8.6 mph13.8 kmh 30.71 in1040.0 mb 0.00 in0.0 mm 0.00 in0.0 mm 0.00 in0.0 mm
02:04 AM 29.8°F-1.2°C 30.5°F-0.8°C 79% 11.0 mph SE17.7 kmh SE 11.1 mph17.9 kmh 30.71 in1040.0 mb 0.00 in0.0 mm 0.00 in0.0 mm 0.00 in0.0 mm
02:07 AM 29.8°F-1.2°C 30.5°F-0.8°C 79% 8.3 mph ESE13.4 kmh ESE 8.4 mph13.5 kmh 30.71 in1040.0 mb 0.00 in0.0 mm 0.00 in0.0 mm 0.00 in0.0 mm
02:10 AM 29.5°F-1.4°C 30.8°F-0.7°C 80% 8.1 mph SE13.0 kmh SE 8.1 mph13.0 kmh 30.71 in1040.0 mb 0.00 in0.0 mm 0.00 in0.0 mm 0.00 in0.0 mm
02:13 AM 29.8°F-1.2°C 30.5°F-0.8°C 79% 9.2 mph ESE14.8 kmh ESE 9.4 mph15.1 kmh 30.71 in1040.0 mb 0.00 in0.0 mm 0.00 in0.0 mm 0.00 in0.0 mm
02:16 AM 30.1°F-1.1°C 30.4°F-0.9°C 79% 8.4 mph SE13.5 kmh SE 8.4 mph13.5 kmh 30.71 in1040.0 mb 0.00 in0.0 mm 0.00 in0.0 mm 0.00 in0.0 mm
02:19 AM 30.1°F-1.1°C 30.7°F-0.7°C 80% 8.1 mph SE13.0 kmh SE 8.2 mph13.2 kmh 30.71 in1040.0 mb 0.00 in0.0 mm 0.00 in0.0 mm 0.00 in0.0 mm
02:22 AM 29.6°F-1.3°C 30.6°F-0.8°C 79% 4.9 mph ESE7.9 kmh ESE 4.9 mph7.9 kmh 30.71 in1040.0 mb 0.00 in0.0 mm 0.00 in0.0 mm 0.00 in0.0 mm
02:25 AM 29.2°F-1.6°C 31.0°F-0.6°C 79% 6.3 mph ESE10.1 kmh ESE 6.4 mph10.3 kmh 30.71 in1040.0 mb 0.00 in0.0 mm 0.00 in0.0 mm 0.00 in0.0 mm
02:28 AM 29.5°F-1.4°C 30.7°F-0.7°C 79% 6.7 mph SE10.8 kmh SE 6.8 mph10.9 kmh 30.71 in1040.0 mb 0.00 in0.0 mm 0.00 in0.0 mm 0.00 in0.0 mm
02:31 AM 29.4°F-1.4°C 30.7°F-0.7°C 79% 5.5 mph ESE8.9 kmh ESE 5.6 mph9.0 kmh 30.71 in1040.0 mb 0.00 in0.0 mm 0.00 in0.0 mm 0.00 in0.0 mm
02:34 AM 29.5°F-1.4°C 30.4°F-0.9°C 79% 6.5 mph ESE10.5 kmh ESE 6.5 mph10.5 kmh 30.72 in1040.3 mb 0.00 in0.0 mm 0.00 in0.0 mm 0.00 in0.0 mm
02:37 AM 28.9°F-1.7°C 30.0°F-1.1°C 77% 4.4 mph SE7.1 kmh SE 4.4 mph7.1 kmh 30.72 in1040.3 mb 0.00 in0.0 mm 0.00 in0.0 mm 0.00 in0.0 mm
02:40 AM 29.2°F-1.6°C 29.7°F-1.3°C 76% 5.8 mph SE9.3 kmh SE 5.8 mph9.3 kmh 30.71 in1040.0 mb 0.00 in0.0 mm 0.00 in0.0 mm 0.00 in0.0 mm
02:43 AM 29.3°F-1.5°C 30.0°F-1.1°C 77% 6.9 mph ESE11.1 kmh ESE 6.9 mph11.1 kmh 30.71 in1040.0 mb 0.00 in0.0 mm 0.00 in0.0 mm 0.00 in0.0 mm
02:46 AM 29.4°F-1.4°C 29.5°F-1.4°C 76% 6.9 mph ESE11.1 kmh ESE 6.9 mph11.1 kmh 30.71 in1040.0 mb 0.00 in0.0 mm 0.00 in0.0 mm 0.00 in0.0 mm
02:49 AM 29.6°F-1.3°C 29.6°F-1.3°C 77% 5.7 mph NNW9.2 kmh NNW 5.7 mph9.2 kmh 30.71 in1040.0 mb 0.00 in0.0 mm 0.00 in0.0 mm 0.00 in0.0 mm
02:52 AM 29.3°F-1.5°C 29.7°F-1.3°C 76% 7.1 mph NNW11.4 kmh NNW 7.2 mph11.6 kmh 30.71 in1040.0 mb 0.00 in0.0 mm 0.00 in0.0 mm 0.00 in0.0 mm
02:55 AM 29.2°F-1.6°C 29.5°F-1.4°C 76% 10.3 mph ESE16.6 kmh ESE 10.4 mph16.7 kmh 30.71 in1040.0 mb 0.00 in0.0 mm 0.00 in0.0 mm 0.00 in0.0 mm
02:58 AM 29.4°F-1.4°C 29.6°F-1.3°C 77% 9.5 mph SE15.3 kmh SE 9.5 mph15.3 kmh 30.71 in1040.0 mb 0.00 in0.0 mm 0.00 in0.0 mm 0.00 in0.0 mm
03:01 AM 29.6°F-1.3°C 29.5°F-1.4°C 77% 9.3 mph ESE15.0 kmh ESE 9.3 mph15.0 kmh 30.71 in1040.0 mb 0.00 in0.0 mm 0.00 in0.0 mm 0.00 in0.0 mm
03:04 AM 29.2°F-1.6°C 29.8°F-1.2°C 78% 6.9 mph ESE11.1 kmh ESE 6.9 mph11.1 kmh 30.71 in1040.0 mb 0.00 in0.0 mm 0.00 in0.0 mm 0.00 in0.0 mm
03:07 AM 29.2°F-1.6°C 29.5°F-1.4°C 77% 9.3 mph SE15.0 kmh SE 9.3 mph15.0 kmh 30.71 in1040.0 mb 0.00 in0.0 mm 0.00 in0.0 mm 0.00 in0.0 mm
03:10 AM 29.3°F-1.5°C 30.0°F-1.1°C 79% 6.9 mph NNW11.1 kmh NNW 6.9 mph11.1 kmh 30.71 in1040.0 mb 0.00 in0.0 mm 0.00 in0.0 mm 0.00 in0.0 mm
03:13 AM 28.9°F-1.7°C 30.2°F-1.0°C 78% 6.7 mph NNW10.8 kmh NNW 6.8 mph10.9 kmh 30.71 in1040.0 mb 0.00 in0.0 mm 0.00 in0.0 mm 0.00 in0.0 mm
03:16 AM 28.9°F-1.7°C 29.7°F-1.3°C 78% 6.4 mph ESE10.3 kmh ESE 6.4 mph10.3 kmh 30.71 in1040.0 mb 0.00 in0.0 mm 0.00 in0.0 mm 0.00 in0.0 mm
03:19 AM 29.2°F-1.6°C 29.7°F-1.3°C 78% 6.7 mph ESE10.8 kmh ESE 6.7 mph10.8 kmh 30.72 in1040.3 mb 0.00 in0.0 mm 0.00 in0.0 mm 0.00 in0.0 mm
03:22 AM 29.6°F-1.3°C 29.1°F-1.6°C 77% 8.1 mph SE13.0 kmh SE 8.1 mph13.0 kmh 30.71 in1040.0 mb 0.00 in0.0 mm 0.00 in0.0 mm 0.00 in0.0 mm
03:25 AM 29.5°F-1.4°C 29.2°F-1.6°C 77% 5.6 mph SE9.0 kmh SE 5.6 mph9.0 kmh 30.72 in1040.3 mb 0.00 in0.0 mm 0.00 in0.0 mm 0.00 in0.0 mm
03:28 AM 29.3°F-1.5°C 29.1°F-1.6°C 76% 6.8 mph SE10.9 kmh SE 6.8 mph10.9 kmh 30.71 in1040.0 mb 0.00 in0.0 mm 0.00 in0.0 mm 0.00 in0.0 mm
03:31 AM 29.6°F-1.3°C 29.0°F-1.7°C 76% 6.9 mph SE11.1 kmh SE 6.9 mph11.1 kmh 30.71 in1040.0 mb 0.00 in0.0 mm 0.00 in0.0 mm 0.00 in0.0 mm
03:34 AM 29.8°F-1.2°C 29.1°F-1.6°C 75% 6.0 mph NNW9.7 kmh NNW 6.1 mph9.8 kmh 30.71 in1040.0 mb 0.00 in0.0 mm 0.00 in0.0 mm 0.00 in0.0 mm
03:37 AM 29.6°F-1.3°C 29.4°F-1.4°C 76% 6.5 mph ESE10.5 kmh ESE 6.5 mph10.5 kmh 30.71 in1040.0 mb 0.00 in0.0 mm 0.00 in0.0 mm 0.00 in0.0 mm
03:40 AM 29.6°F-1.3°C 29.7°F-1.3°C 77% 6.5 mph NNW10.5 kmh NNW 6.5 mph10.5 kmh 30.71 in1040.0 mb 0.00 in0.0 mm 0.00 in0.0 mm 0.00 in0.0 mm
03:43 AM 29.6°F-1.3°C 30.0°F-1.1°C 78% 3.8 mph SSE6.1 kmh SSE 4.1 mph6.6 kmh 30.71 in1040.0 mb 0.00 in0.0 mm 0.00 in0.0 mm 0.00 in0.0 mm
03:46 AM 29.4°F-1.4°C 30.4°F-0.9°C 78% 4.4 mph SE7.1 kmh SE 4.4 mph7.1 kmh 30.71 in1040.0 mb 0.00 in0.0 mm 0.00 in0.0 mm 0.00 in0.0 mm
03:49 AM 29.8°F-1.2°C 29.3°F-1.5°C 76% 5.6 mph SE9.0 kmh SE 5.6 mph9.0 kmh 30.71 in1040.0 mb 0.00 in0.0 mm 0.00 in0.0 mm 0.00 in0.0 mm
03:52 AM 29.5°F-1.4°C 29.7°F-1.3°C 78% 8.1 mph SE13.0 kmh SE 8.1 mph13.0 kmh 30.71 in1040.0 mb 0.00 in0.0 mm 0.00 in0.0 mm 0.00 in0.0 mm
03:55 AM 29.3°F-1.5°C 29.7°F-1.3°C 77% 4.4 mph SSE7.1 kmh SSE 4.4 mph7.1 kmh 30.71 in1040.0 mb 0.00 in0.0 mm 0.00 in0.0 mm 0.00 in0.0 mm
03:58 AM 29.2°F-1.6°C 29.9°F-1.2°C 78% 4.0 mph SSE6.4 kmh SSE 4.1 mph6.6 kmh 30.71 in1040.0 mb 0.00 in0.0 mm 0.00 in0.0 mm 0.00 in0.0 mm
04:01 AM 28.7°F-1.8°C 29.9°F-1.2°C 77% 4.0 mph SE6.4 kmh SE 4.1 mph6.6 kmh 30.71 in1040.0 mb 0.00 in0.0 mm 0.00 in0.0 mm 0.00 in0.0 mm
04:04 AM 28.6°F-1.9°C 30.0°F-1.1°C 78% 4.4 mph NNW7.1 kmh NNW 4.5 mph7.2 kmh 30.71 in1040.0 mb 0.00 in0.0 mm 0.00 in0.0 mm 0.00 in0.0 mm
04:07 AM 28.7°F-1.8°C 29.4°F-1.4°C 77% 4.4 mph NNW7.1 kmh NNW 4.5 mph7.2 kmh 30.71 in1040.0 mb 0.00 in0.0 mm 0.00 in0.0 mm 0.00 in0.0 mm
04:10 AM 28.2°F-2.1°C 29.5°F-1.4°C 77% 5.3 mph SE8.5 kmh SE 5.3 mph8.5 kmh 30.71 in1040.0 mb 0.00 in0.0 mm 0.00 in0.0 mm 0.00 in0.0 mm
04:13 AM 28.0°F-2.2°C 29.8°F-1.2°C 78% 4.9 mph SE7.9 kmh SE 4.9 mph7.9 kmh 30.71 in1040.0 mb 0.00 in0.0 mm 0.00 in0.0 mm 0.00 in0.0 mm
04:16 AM 28.0°F-2.2°C 29.4°F-1.4°C 77% 3.2 mph SE5.1 kmh SE 3.2 mph5.1 kmh 30.71 in1040.0 mb 0.00 in0.0 mm 0.00 in0.0 mm 0.00 in0.0 mm
04:19 AM 27.6°F-2.4°C 29.4°F-1.4°C 77% 3.8 mph SE6.1 kmh SE 4.0 mph6.4 kmh 30.71 in1040.0 mb 0.00 in0.0 mm 0.00 in0.0 mm 0.00 in0.0 mm
04:22 AM 26.9°F-2.8°C 29.2°F-1.6°C 76% 3.2 mph NNW5.1 kmh NNW 3.2 mph5.1 kmh 30.71 in1040.0 mb 0.00 in0.0 mm 0.00 in0.0 mm 0.00 in0.0 mm
04:25 AM 26.9°F-2.8°C 29.2°F-1.6°C 77% 2.4 mph ESE3.9 kmh ESE 2.4 mph3.9 kmh 30.71 in1040.0 mb 0.00 in0.0 mm 0.00 in0.0 mm 0.00 in0.0 mm
04:28 AM 26.6°F-3.0°C 29.0°F-1.7°C 76% 2.0 mph NNW3.2 kmh NNW 2.0 mph3.2 kmh 30.71 in1040.0 mb 0.00 in0.0 mm 0.00 in0.0 mm 0.00 in0.0 mm
04:31 AM 26.7°F-2.9°C 28.8°F-1.8°C 76% 3.2 mph SE5.1 kmh SE 3.2 mph5.1 kmh 30.71 in1040.0 mb 0.00 in0.0 mm 0.00 in0.0 mm 0.00 in0.0 mm
04:34 AM 26.8°F-2.9°C 29.2°F-1.6°C 78% 3.2 mph NNW5.1 kmh NNW 3.3 mph5.3 kmh 30.71 in1040.0 mb 0.00 in0.0 mm 0.00 in0.0 mm 0.00 in0.0 mm
04:37 AM 26.9°F-2.8°C 28.9°F-1.7°C 78% 4.0 mph SE6.4 kmh SE 4.0 mph6.4 kmh 30.71 in1040.0 mb 0.00 in0.0 mm 0.00 in0.0 mm 0.00 in0.0 mm
04:40 AM 27.4°F-2.6°C 29.3°F-1.5°C 79% 3.2 mph SSE5.1 kmh SSE 3.2 mph5.1 kmh 30.71 in1040.0 mb 0.00 in0.0 mm 0.00 in0.0 mm 0.00 in0.0 mm
04:43 AM 27.6°F-2.4°C 29.5°F-1.4°C 79% 2.4 mph SSE3.9 kmh SSE 2.4 mph3.9 kmh 30.71 in1040.0 mb 0.00 in0.0 mm 0.00 in0.0 mm 0.00 in0.0 mm
04:46 AM 27.4°F-2.6°C 29.5°F-1.4°C 78% 3.5 mph SE5.6 kmh SE 3.7 mph6.0 kmh 30.71 in1040.0 mb 0.00 in0.0 mm 0.00 in0.0 mm 0.00 in0.0 mm
04:49 AM 27.3°F-2.6°C 29.5°F-1.4°C 79% 2.8 mph NNW4.5 kmh NNW 2.8 mph4.5 kmh 30.71 in1040.0 mb 0.00 in0.0 mm 0.00 in0.0 mm 0.00 in0.0 mm
04:52 AM 27.4°F-2.6°C 29.3°F-1.5°C 78% 1.6 mph NNW2.6 kmh NNW 1.6 mph2.6 kmh 30.71 in1040.0 mb 0.00 in0.0 mm 0.00 in0.0 mm 0.00 in0.0 mm
04:55 AM 26.9°F-2.8°C 29.4°F-1.4°C 78% 2.0 mph SE3.2 kmh SE 2.0 mph3.2 kmh 30.71 in1040.0 mb 0.00 in0.0 mm 0.00 in0.0 mm 0.00 in0.0 mm
04:58 AM 27.3°F-2.6°C 29.2°F-1.6°C 78% 1.2 mph SSE1.9 kmh SSE 1.2 mph1.9 kmh 30.71 in1040.0 mb 0.00 in0.0 mm 0.00 in0.0 mm 0.00 in0.0 mm
05:01 AM 27.1°F-2.7°C 29.2°F-1.6°C 78% 1.5 mph NNW2.4 kmh NNW 1.5 mph2.4 kmh 30.71 in1040.0 mb 0.00 in0.0 mm 0.00 in0.0 mm 0.00 in0.0 mm
05:04 AM 26.9°F-2.8°C 29.1°F-1.6°C 77% Calm Calm -- 30.71 in1040.0 mb 0.00 in0.0 mm 0.00 in0.0 mm 0.00 in0.0 mm
05:07 AM 26.7°F-2.9°C 28.9°F-1.7°C 77% Calm Calm -- 30.71 in1040.0 mb 0.00 in0.0 mm 0.00 in0.0 mm 0.00 in0.0 mm
05:10 AM 26.8°F-2.9°C 28.3°F-2.1°C 76% 3.8 mph SE6.1 kmh SE 3.9 mph6.3 kmh 30.71 in1040.0 mb 0.00 in0.0 mm 0.00 in0.0 mm 0.00 in0.0 mm
05:13 AM 27.2°F-2.7°C 28.7°F-1.8°C 77% 2.0 mph SSE3.2 kmh SSE 2.0 mph3.2 kmh 30.71 in1040.0 mb 0.00 in0.0 mm 0.00 in0.0 mm 0.00 in0.0 mm
05:16 AM 27.5°F-2.5°C 28.5°F-1.9°C 77% 2.8 mph S4.5 kmh S 2.8 mph4.5 kmh 30.71 in1040.0 mb 0.00 in0.0 mm 0.00 in0.0 mm 0.00 in0.0 mm
05:19 AM 28.1°F-2.2°C 28.3°F-2.1°C 76% 3.5 mph SSE5.6 kmh SSE 3.5 mph5.6 kmh 30.71 in1040.0 mb 0.00 in0.0 mm 0.00 in0.0 mm 0.00 in0.0 mm
05:22 AM 28.0°F-2.2°C 28.6°F-1.9°C 76% 3.6 mph SE5.8 kmh SE 3.6 mph5.8 kmh 30.71 in1040.0 mb 0.00 in0.0 mm 0.00 in0.0 mm 0.00 in0.0 mm
05:25 AM 27.6°F-2.4°C 28.5°F-1.9°C 77% 2.4 mph SSE3.9 kmh SSE 2.4 mph3.9 kmh 30.71 in1040.0 mb 0.00 in0.0 mm 0.00 in0.0 mm 0.00 in0.0 mm
05:28 AM 27.7°F-2.4°C 28.3°F-2.1°C 76% 2.7 mph SSE4.3 kmh SSE 2.7 mph4.3 kmh 30.71 in1040.0 mb 0.00 in0.0 mm 0.00 in0.0 mm 0.00 in0.0 mm
05:31 AM 27.3°F-2.6°C 28.3°F-2.1°C 76% 3.2 mph SSE5.1 kmh SSE 3.2 mph5.1 kmh 30.71 in1040.0 mb 0.00 in0.0 mm 0.00 in0.0 mm 0.00 in0.0 mm
05:34 AM 27.6°F-2.4°C 28.5°F-1.9°C 77% 3.6 mph SE5.8 kmh SE 3.6 mph5.8 kmh 30.72 in1040.3 mb 0.00 in0.0 mm 0.00 in0.0 mm 0.00 in0.0 mm
05:37 AM 27.4°F-2.6°C 28.8°F-1.8°C 77% 3.1 mph NNW5.0 kmh NNW 3.1 mph5.0 kmh 30.71 in1040.0 mb 0.00 in0.0 mm 0.00 in0.0 mm 0.00 in0.0 mm
05:40 AM 27.4°F-2.6°C 28.7°F-1.8°C 78% 3.2 mph SE5.1 kmh SE 3.3 mph5.3 kmh 30.71 in1040.0 mb 0.00 in0.0 mm 0.00 in0.0 mm 0.00 in0.0 mm
05:43 AM 27.3°F-2.6°C 28.1°F-2.2°C 77% 4.0 mph NNW6.4 kmh NNW 4.0 mph6.4 kmh 30.72 in1040.3 mb 0.00 in0.0 mm 0.00 in0.0 mm 0.00 in0.0 mm
05:46 AM 26.9°F-2.8°C 28.7°F-1.8°C 78% 2.3 mph NNW3.7 kmh NNW 2.3 mph3.7 kmh 30.71 in1040.0 mb 0.00 in0.0 mm 0.00 in0.0 mm 0.00 in0.0 mm
05:52 AM 26.6°F-3.0°C 29.0°F-1.7°C 78% Calm Calm -- 30.71 in1040.0 mb 0.00 in0.0 mm 0.00 in0.0 mm 0.00 in0.0 mm
05:55 AM 26.7°F-2.9°C 29.0°F-1.7°C 78% Calm Calm -- 30.71 in1040.0 mb 0.00 in0.0 mm 0.00 in0.0 mm 0.00 in0.0 mm
05:58 AM 26.5°F-3.1°C 28.7°F-1.8°C 78% Calm Calm -- 30.71 in1040.0 mb 0.00 in0.0 mm 0.00 in0.0 mm 0.00 in0.0 mm
06:01 AM 25.6°F-3.6°C 28.5°F-1.9°C 77% Calm Calm -- 30.72 in1040.3 mb 0.00 in0.0 mm 0.00 in0.0 mm 0.00 in0.0 mm
06:04 AM 25.1°F-3.8°C 28.4°F-2.0°C 77% Calm Calm -- 30.71 in1040.0 mb 0.00 in0.0 mm 0.00 in0.0 mm 0.00 in0.0 mm
06:07 AM 25.3°F-3.7°C 28.4°F-2.0°C 77% Calm Calm -- 30.71 in1040.0 mb 0.00 in0.0 mm 0.00 in0.0 mm 0.00 in0.0 mm
06:10 AM 24.5°F-4.2°C 27.9°F-2.3°C 76% Calm Calm -- 30.72 in1040.3 mb 0.00 in0.0 mm 0.00 in0.0 mm 0.00 in0.0 mm
06:13 AM 24.5°F-4.2°C 27.7°F-2.4°C 76% Calm Calm -- 30.71 in1040.0 mb 0.00 in0.0 mm 0.00 in0.0 mm 0.00 in0.0 mm
06:16 AM 24.1°F-4.4°C 27.5°F-2.5°C 76% Calm Calm -- 30.71 in1040.0 mb 0.00 in0.0 mm 0.00 in0.0 mm 0.00 in0.0 mm
06:19 AM 23.6°F-4.7°C 27.2°F-2.7°C 76% Calm Calm -- 30.71 in1040.0 mb 0.00 in0.0 mm 0.00 in0.0 mm 0.00 in0.0 mm
06:22 AM 23.3°F-4.8°C 27.3°F-2.6°C 77% Calm Calm -- 30.71 in1040.0 mb 0.00 in0.0 mm 0.00 in0.0 mm 0.00 in0.0 mm
06:25 AM 23.6°F-4.7°C 27.2°F-2.7°C 77% Calm Calm -- 30.71 in1040.0 mb 0.00 in0.0 mm 0.00 in0.0 mm 0.00 in0.0 mm
06:28 AM 23.5°F-4.7°C 27.0°F-2.8°C 76% Calm Calm -- 30.71 in1040.0 mb 0.00 in0.0 mm 0.00 in0.0 mm 0.00 in0.0 mm
06:31 AM 23.5°F-4.7°C 27.3°F-2.6°C 77% Calm Calm -- 30.71 in1040.0 mb 0.00 in0.0 mm 0.00 in0.0 mm 0.00 in0.0 mm
06:34 AM 23.8°F-4.6°C 27.2°F-2.7°C 77% Calm Calm -- 30.71 in1040.0 mb 0.00 in0.0 mm 0.00 in0.0 mm 0.00 in0.0 mm
06:37 AM 23.7°F-4.6°C 26.9°F-2.8°C 77% Calm Calm -- 30.71 in1040.0 mb 0.00 in0.0 mm 0.00 in0.0 mm 0.00 in0.0 mm
06:40 AM 23.6°F-4.7°C 27.0°F-2.8°C 77% Calm Calm -- 30.72 in1040.3 mb 0.00 in0.0 mm 0.00 in0.0 mm 0.00 in0.0 mm
06:43 AM 23.3°F-4.8°C 27.3°F-2.6°C 78% Calm Calm -- 30.71 in1040.0 mb 0.00 in0.0 mm 0.00 in0.0 mm 0.00 in0.0 mm
06:46 AM 23.3°F-4.8°C 27.1°F-2.7°C 78% Calm Calm -- 30.71 in1040.0 mb 0.00 in0.0 mm 0.00 in0.0 mm 0.00 in0.0 mm
06:49 AM 23.1°F-4.9°C 27.1°F-2.7°C 77% Calm Calm -- 30.72 in1040.3 mb 0.00 in0.0 mm 0.00 in0.0 mm 0.00 in0.0 mm
06:52 AM 23.0°F-5.0°C 26.8°F-2.9°C 77% Calm Calm -- 30.71 in1040.0 mb 0.00 in0.0 mm 0.00 in0.0 mm 0.00 in0.0 mm
06:55 AM 22.8°F-5.1°C 26.7°F-2.9°C 77% Calm Calm -- 30.71 in1040.0 mb 0.00 in0.0 mm 0.00 in0.0 mm 0.00 in0.0 mm
06:58 AM 22.8°F-5.1°C 26.6°F-3.0°C 77% Calm Calm -- 30.71 in1040.0 mb 0.00 in0.0 mm 0.00 in0.0 mm 0.00 in0.0 mm
07:01 AM 22.9°F-5.1°C 26.3°F-3.2°C 77% Calm Calm -- 30.71 in1040.0 mb 0.00 in0.0 mm 0.00 in0.0 mm 0.00 in0.0 mm
07:04 AM 23.0°F-5.0°C 26.6°F-3.0°C 77% Calm Calm -- 30.71 in1040.0 mb 0.00 in0.0 mm 0.00 in0.0 mm 0.00 in0.0 mm
07:07 AM 23.0°F-5.0°C 26.3°F-3.2°C 77% Calm Calm -- 30.72 in1040.3 mb 0.00 in0.0 mm 0.00 in0.0 mm 0.00 in0.0 mm
07:10 AM 22.8°F-5.1°C 26.4°F-3.1°C 78% Calm Calm -- 30.72 in1040.3 mb 0.00 in0.0 mm 0.00 in0.0 mm 0.00 in0.0 mm
07:13 AM 22.8°F-5.1°C 26.5°F-3.1°C 78% Calm Calm -- 30.72 in1040.3 mb 0.00 in0.0 mm 0.00 in0.0 mm 0.00 in0.0 mm
07:16 AM 22.3°F-5.4°C 26.4°F-3.1°C 78% Calm Calm -- 30.73 in1040.6 mb 0.00 in0.0 mm 0.00 in0.0 mm 0.00 in0.0 mm
07:19 AM 22.4°F-5.3°C 26.0°F-3.3°C 77% Calm Calm -- 30.73 in1040.6 mb 0.00 in0.0 mm 0.00 in0.0 mm 0.00 in0.0 mm
07:22 AM 22.6°F-5.2°C 26.4°F-3.1°C 78% Calm Calm -- 30.73 in1040.6 mb 0.00 in0.0 mm 0.00 in0.0 mm 0.00 in0.0 mm
07:25 AM 22.4°F-5.3°C 26.4°F-3.1°C 78% Calm Calm -- 30.73 in1040.6 mb 0.00 in0.0 mm 0.00 in0.0 mm 0.00 in0.0 mm
07:28 AM 22.7°F-5.2°C 26.6°F-3.0°C 80% Calm Calm -- 30.71 in1040.0 mb 0.00 in0.0 mm 0.00 in0.0 mm 0.00 in0.0 mm
07:31 AM 22.4°F-5.3°C 27.3°F-2.6°C 80% Calm Calm -- 30.71 in1040.0 mb 0.00 in0.0 mm 0.00 in0.0 mm 0.00 in0.0 mm
07:34 AM 22.2°F-5.4°C 26.8°F-2.9°C 78% Calm Calm -- 30.72 in1040.3 mb 0.00 in0.0 mm 0.00 in0.0 mm 0.00 in0.0 mm
07:37 AM 23.0°F-5.0°C 26.4°F-3.1°C 77% Calm Calm -- 30.72 in1040.3 mb 0.00 in0.0 mm 0.00 in0.0 mm 0.00 in0.0 mm
07:40 AM 23.3°F-4.8°C 26.4°F-3.1°C 77% Calm Calm -- 30.73 in1040.6 mb 0.00 in0.0 mm 0.00 in0.0 mm 0.00 in0.0 mm
07:43 AM 23.3°F-4.8°C 26.7°F-2.9°C 78% Calm Calm -- 30.73 in1040.6 mb 0.00 in0.0 mm 0.00 in0.0 mm 0.00 in0.0 mm
07:46 AM 24.2°F-4.3°C 27.1°F-2.7°C 79% Calm Calm -- 30.73 in1040.6 mb 0.00 in0.0 mm 0.00 in0.0 mm 0.00 in0.0 mm
07:49 AM 24.1°F-4.4°C 27.6°F-2.4°C 80% Calm Calm -- 30.73 in1040.6 mb 0.00 in0.0 mm 0.00 in0.0 mm 0.00 in0.0 mm
07:52 AM 24.5°F-4.2°C 27.6°F-2.4°C 80% Calm Calm -- 30.72 in1040.3 mb 0.00 in0.0 mm 0.00 in0.0 mm 0.00 in0.0 mm
07:55 AM 24.8°F-4.0°C 28.2°F-2.1°C 80% Calm Calm -- 30.73 in1040.6 mb 0.00 in0.0 mm 0.00 in0.0 mm 0.00 in0.0 mm
07:58 AM 25.1°F-3.8°C 28.6°F-1.9°C 80% Calm Calm -- 30.73 in1040.6 mb 0.00 in0.0 mm 0.00 in0.0 mm 0.00 in0.0 mm
08:01 AM 25.8°F-3.4°C 28.9°F-1.7°C 79% Calm Calm -- 30.73 in1040.6 mb 0.00 in0.0 mm 0.00 in0.0 mm 0.00 in0.0 mm
08:04 AM 26.7°F-2.9°C 29.2°F-1.6°C 78% Calm Calm -- 30.73 in1040.6 mb 0.00 in0.0 mm 0.00 in0.0 mm 0.00 in0.0 mm
08:07 AM 27.4°F-2.6°C 29.4°F-1.4°C 78% Calm Calm -- 30.73 in1040.6 mb 0.00 in0.0 mm 0.00 in0.0 mm 0.00 in0.0 mm
08:10 AM 28.6°F-1.9°C 29.6°F-1.3°C 78% Calm Calm -- 30.73 in1040.6 mb 0.00 in0.0 mm 0.00 in0.0 mm 0.00 in0.0 mm
08:13 AM 29.0°F-1.7°C 29.9°F-1.2°C 77% Calm Calm -- 30.73 in1040.6 mb 0.00 in0.0 mm 0.00 in0.0 mm 0.00 in0.0 mm
08:16 AM 29.1°F-1.6°C 30.1°F-1.1°C 76% Calm Calm -- 30.73 in1040.6 mb 0.00 in0.0 mm 0.00 in0.0 mm 0.00 in0.0 mm
08:19 AM 29.0°F-1.7°C 29.8°F-1.2°C 75% Calm Calm -- 30.73 in1040.6 mb 0.00 in0.0 mm 0.00 in0.0 mm 0.00 in0.0 mm
08:22 AM 30.1°F-1.1°C 29.7°F-1.3°C 75% Calm Calm -- 30.73 in1040.6 mb 0.00 in0.0 mm 0.00 in0.0 mm 0.00 in0.0 mm
08:25 AM 29.8°F-1.2°C 29.6°F-1.3°C 75% Calm Calm -- 30.73 in1040.6 mb 0.00 in0.0 mm 0.00 in0.0 mm 0.00 in0.0 mm
08:28 AM 30.1°F-1.1°C 29.4°F-1.4°C 73% Calm Calm -- 30.73 in1040.6 mb 0.00 in0.0 mm 0.00 in0.0 mm 0.00 in0.0 mm
08:31 AM 29.2°F-1.6°C 29.7°F-1.3°C 75% Calm Calm -- 30.73 in1040.6 mb 0.00 in0.0 mm 0.00 in0.0 mm 0.00 in0.0 mm
08:34 AM 29.5°F-1.4°C 30.1°F-1.1°C 75% Calm Calm -- 30.74 in1041.0 mb 0.00 in0.0 mm 0.00 in0.0 mm 0.00 in0.0 mm
08:37 AM 30.4°F-0.9°C 29.8°F-1.2°C 74% Calm Calm -- 30.73 in1040.6 mb 0.00 in0.0 mm 0.00 in0.0 mm 0.00 in0.0 mm
08:40 AM 31.1°F-0.5°C 28.9°F-1.7°C 72% Calm Calm -- 30.74 in1041.0 mb 0.00 in0.0 mm 0.00 in0.0 mm 0.00 in0.0 mm
08:43 AM 31.0°F-0.6°C 28.1°F-2.2°C 69% Calm Calm -- 30.73 in1040.6 mb 0.00 in0.0 mm 0.00 in0.0 mm 0.00 in0.0 mm
08:46 AM 30.8°F-0.7°C 28.7°F-1.8°C 70% Calm Calm -- 30.74 in1041.0 mb 0.00 in0.0 mm 0.00 in0.0 mm 0.00 in0.0 mm
08:49 AM 31.2°F-0.4°C 28.4°F-2.0°C 69% Calm Calm -- 30.74 in1041.0 mb 0.00 in0.0 mm 0.00 in0.0 mm 0.00 in0.0 mm
08:52 AM 31.4°F-0.3°C 28.3°F-2.1°C 69% Calm Calm -- 30.74 in1041.0 mb 0.00 in0.0 mm 0.00 in0.0 mm 0.00 in0.0 mm
08:55 AM 31.6°F-0.2°C 29.0°F-1.7°C 70% Calm Calm -- 30.74 in1041.0 mb 0.00 in0.0 mm 0.00 in0.0 mm 0.00 in0.0 mm
08:58 AM 31.9°F-0.1°C 29.5°F-1.4°C 71% Calm Calm -- 30.74 in1041.0 mb 0.00 in0.0 mm 0.00 in0.0 mm 0.00 in0.0 mm
09:01 AM 32.2°F0.1°C 28.8°F-1.8°C 69% Calm Calm -- 30.74 in1041.0 mb 0.00 in0.0 mm 0.00 in0.0 mm 0.00 in0.0 mm
09:04 AM 32.3°F0.2°C 29.9°F-1.2°C 71% Calm Calm -- 30.74 in1041.0 mb 0.00 in0.0 mm 0.00 in0.0 mm 0.00 in0.0 mm
09:07 AM 32.8°F0.4°C 29.5°F-1.4°C 70% Calm Calm -- 30.74 in1041.0 mb 0.00 in0.0 mm 0.00 in0.0 mm 0.00 in0.0 mm
09:10 AM 32.2°F0.1°C 30.2°F-1.0°C 70% Calm Calm -- 30.73 in1040.6 mb 0.00 in0.0 mm 0.00 in0.0 mm 0.00 in0.0 mm
09:13 AM 33.2°F0.7°C 29.9°F-1.2°C 69% Calm Calm -- 30.73 in1040.6 mb 0.00 in0.0 mm 0.00 in0.0 mm 0.00 in0.0 mm
09:16 AM 33.4°F0.8°C 30.0°F-1.1°C 68% Calm Calm -- 30.73 in1040.6 mb 0.00 in0.0 mm 0.00 in0.0 mm 0.00 in0.0 mm
09:19 AM 33.6°F0.9°C 29.6°F-1.3°C 66% Calm Calm -- 30.74 in1041.0 mb 0.00 in0.0 mm 0.00 in0.0 mm 0.00 in0.0 mm
09:22 AM 34.1°F1.2°C 28.9°F-1.7°C 64% Calm Calm -- 30.74 in1041.0 mb 0.00 in0.0 mm 0.00 in0.0 mm 0.00 in0.0 mm
09:25 AM 33.9°F1.1°C 29.2°F-1.6°C 65% Calm Calm -- 30.74 in1041.0 mb 0.00 in0.0 mm 0.00 in0.0 mm 0.00 in0.0 mm
09:28 AM 34.1°F1.2°C 29.2°F-1.6°C 65% Calm Calm -- 30.74 in1041.0 mb 0.00 in0.0 mm 0.00 in0.0 mm 0.00 in0.0 mm
09:31 AM 34.5°F1.4°C 29.9°F-1.2°C 66% Calm Calm -- 30.74 in1041.0 mb 0.00 in0.0 mm 0.00 in0.0 mm 0.00 in0.0 mm
09:34 AM 35.2°F1.8°C 30.3°F-0.9°C 66% Calm Calm -- 30.74 in1041.0 mb 0.00 in0.0 mm 0.00 in0.0 mm 0.00 in0.0 mm
09:37 AM 35.0°F1.7°C 30.3°F-0.9°C 65% Calm Calm -- 30.74 in1041.0 mb 0.00 in0.0 mm 0.00 in0.0 mm 0.00 in0.0 mm
09:40 AM 34.9°F1.6°C 29.7°F-1.3°C 64% Calm Calm -- 30.74 in1041.0 mb 0.00 in0.0 mm 0.00 in0.0 mm 0.00 in0.0 mm
09:43 AM 34.8°F1.6°C 29.0°F-1.7°C 62% Calm Calm -- 30.74 in1041.0 mb 0.00 in0.0 mm 0.00 in0.0 mm 0.00 in0.0 mm
09:46 AM 35.5°F1.9°C 29.4°F-1.4°C 62% Calm Calm -- 30.75 in1041.3 mb 0.00 in0.0 mm 0.00 in0.0 mm 0.00 in0.0 mm
09:49 AM 34.8°F1.6°C 28.6°F-1.9°C 61% Calm Calm -- 30.74 in1041.0 mb 0.00 in0.0 mm 0.00 in0.0 mm 0.00 in0.0 mm
09:52 AM 34.8°F1.6°C 29.0°F-1.7°C 61% Calm Calm -- 30.74 in1041.0 mb 0.00 in0.0 mm 0.00 in0.0 mm 0.00 in0.0 mm
09:55 AM 34.7°F1.5°C 28.3°F-2.1°C 60% Calm Calm -- 30.74 in1041.0 mb 0.00 in0.0 mm 0.00 in0.0 mm 0.00 in0.0 mm
09:58 AM 35.0°F1.7°C 29.3°F-1.5°C 62% Calm Calm -- 30.74 in1041.0 mb 0.00 in0.0 mm 0.00 in0.0 mm 0.00 in0.0 mm
10:01 AM 34.8°F1.6°C 29.9°F-1.2°C 63% Calm Calm -- 30.74 in1041.0 mb 0.00 in0.0 mm 0.00 in0.0 mm 0.00 in0.0 mm
10:04 AM 34.8°F1.6°C 28.6°F-1.9°C 60% Calm Calm -- 30.75 in1041.3 mb 0.00 in0.0 mm 0.00 in0.0 mm 0.00 in0.0 mm
10:07 AM 34.9°F1.6°C 28.8°F-1.8°C 60% 0.8 mph NNW1.3 kmh NNW 0.8 mph1.3 kmh 30.75 in1041.3 mb 0.00 in0.0 mm 0.00 in0.0 mm 0.00 in0.0 mm
10:10 AM 34.9°F1.6°C 28.3°F-2.1°C 59% Calm Calm -- 30.75 in1041.3 mb 0.00 in0.0 mm 0.00 in0.0 mm 0.00 in0.0 mm
10:13 AM 34.9°F1.6°C 28.3°F-2.1°C 59% Calm Calm -- 30.75 in1041.3 mb 0.00 in0.0 mm 0.00 in0.0 mm 0.00 in0.0 mm
10:16 AM 35.2°F1.8°C 28.6°F-1.9°C 59% Calm Calm -- 30.75 in1041.3 mb 0.00 in0.0 mm 0.00 in0.0 mm 0.00 in0.0 mm
10:19 AM 35.5°F1.9°C 29.1°F-1.6°C 61% 1.6 mph NNW2.6 kmh NNW 1.6 mph2.6 kmh 30.75 in1041.3 mb 0.00 in0.0 mm 0.00 in0.0 mm 0.00 in0.0 mm
10:22 AM 35.6°F2.0°C 28.6°F-1.9°C 60% 1.6 mph SE2.6 kmh SE 1.6 mph2.6 kmh 30.75 in1041.3 mb 0.00 in0.0 mm 0.00 in0.0 mm 0.00 in0.0 mm
10:25 AM 35.7°F2.1°C 27.5°F-2.5°C 57% 3.2 mph SE5.1 kmh SE 3.3 mph5.3 kmh 30.75 in1041.3 mb 0.00 in0.0 mm 0.00 in0.0 mm 0.00 in0.0 mm
10:28 AM 35.8°F2.1°C 27.2°F-2.7°C 56% 2.4 mph SSE3.9 kmh SSE 2.4 mph3.9 kmh 30.75 in1041.3 mb 0.00 in0.0 mm 0.00 in0.0 mm 0.00 in0.0 mm
10:31 AM 35.9°F2.2°C 26.8°F-2.9°C 55% 2.4 mph SE3.9 kmh SE 2.4 mph3.9 kmh 30.75 in1041.3 mb 0.00 in0.0 mm 0.00 in0.0 mm 0.00 in0.0 mm
10:34 AM 35.7°F2.1°C 26.6°F-3.0°C 54% 3.2 mph NNW5.1 kmh NNW 3.3 mph5.3 kmh 30.75 in1041.3 mb 0.00 in0.0 mm 0.00 in0.0 mm 0.00 in0.0 mm
10:37 AM 35.8°F2.1°C 26.9°F-2.8°C 55% 2.4 mph S3.9 kmh S 2.4 mph3.9 kmh 30.75 in1041.3 mb 0.00 in0.0 mm 0.00 in0.0 mm 0.00 in0.0 mm
10:40 AM 36.1°F2.3°C 27.9°F-2.3°C 56% 0.8 mph NNW1.3 kmh NNW 0.8 mph1.3 kmh 30.75 in1041.3 mb 0.00 in0.0 mm 0.00 in0.0 mm 0.00 in0.0 mm
10:43 AM 36.1°F2.3°C 27.7°F-2.4°C 56% 1.6 mph SSW2.6 kmh SSW 1.6 mph2.6 kmh 30.75 in1041.3 mb 0.00 in0.0 mm 0.00 in0.0 mm 0.00 in0.0 mm
10:46 AM 36.3°F2.4°C 28.4°F-2.0°C 57% 0.4 mph SSW0.6 kmh SSW 0.4 mph0.6 kmh 30.75 in1041.3 mb 0.00 in0.0 mm 0.00 in0.0 mm 0.00 in0.0 mm
10:49 AM 36.1°F2.3°C 28.3°F-2.1°C 56% 1.6 mph NNW2.6 kmh NNW 1.6 mph2.6 kmh 30.75 in1041.3 mb 0.00 in0.0 mm 0.00 in0.0 mm 0.00 in0.0 mm
10:52 AM 36.3°F2.4°C 28.1°F-2.2°C 56% 0.4 mph S0.6 kmh S 0.4 mph0.6 kmh 30.75 in1041.3 mb 0.00 in0.0 mm 0.00 in0.0 mm 0.00 in0.0 mm
10:55 AM 36.3°F2.4°C 28.7°F-1.8°C 57% 2.0 mph SW3.2 kmh SW 2.0 mph3.2 kmh 30.75 in1041.3 mb 0.00 in0.0 mm 0.00 in0.0 mm 0.00 in0.0 mm
10:58 AM 36.4°F2.4°C 27.7°F-2.4°C 55% 1.6 mph SE2.6 kmh SE 1.6 mph2.6 kmh 30.74 in1041.0 mb 0.00 in0.0 mm 0.00 in0.0 mm 0.00 in0.0 mm
11:01 AM 36.5°F2.5°C 28.0°F-2.2°C 56% Calm Calm -- 30.75 in1041.3 mb 0.00 in0.0 mm 0.00 in0.0 mm 0.00 in0.0 mm
11:04 AM 36.7°F2.6°C 28.8°F-1.8°C 57% Calm Calm -- 30.75 in1041.3 mb 0.00 in0.0 mm 0.00 in0.0 mm 0.00 in0.0 mm
11:07 AM 36.7°F2.6°C 28.6°F-1.9°C 56% 3.2 mph S5.1 kmh S 3.3 mph5.3 kmh 30.75 in1041.3 mb 0.00 in0.0 mm 0.00 in0.0 mm 0.00 in0.0 mm
11:10 AM 36.6°F2.6°C 28.4°F-2.0°C 56% 1.6 mph WSW2.6 kmh WSW 1.6 mph2.6 kmh 30.75 in1041.3 mb 0.00 in0.0 mm 0.00 in0.0 mm 0.00 in0.0 mm
11:13 AM 37.0°F2.8°C 28.5°F-1.9°C 56% 0.4 mph S0.6 kmh S 0.4 mph0.6 kmh 30.75 in1041.3 mb 0.00 in0.0 mm 0.00 in0.0 mm 0.00 in0.0 mm
11:16 AM 36.8°F2.7°C 28.3°F-2.1°C 55% 2.8 mph SE4.5 kmh SE 2.8 mph4.5 kmh 30.75 in1041.3 mb 0.00 in0.0 mm 0.00 in0.0 mm 0.00 in0.0 mm
11:19 AM 37.1°F2.8°C 29.0°F-1.7°C 57% 1.6 mph NNW2.6 kmh NNW 1.6 mph2.6 kmh 30.75 in1041.3 mb 0.00 in0.0 mm 0.00 in0.0 mm 0.00 in0.0 mm
11:22 AM 37.2°F2.9°C 28.8°F-1.8°C 57% 0.4 mph S0.6 kmh S 0.4 mph0.6 kmh 30.75 in1041.3 mb 0.00 in0.0 mm 0.00 in0.0 mm 0.00 in0.0 mm
11:25 AM 37.4°F3.0°C 29.4°F-1.4°C 58% 3.6 mph WSW5.8 kmh WSW 3.6 mph5.8 kmh 30.74 in1041.0 mb 0.00 in0.0 mm 0.00 in0.0 mm 0.00 in0.0 mm
11:28 AM 37.5°F3.1°C 29.5°F-1.4°C 58% 2.3 mph SW3.7 kmh SW 2.3 mph3.7 kmh 30.74 in1041.0 mb 0.00 in0.0 mm 0.00 in0.0 mm 0.00 in0.0 mm
11:31 AM 37.7°F3.2°C 29.4°F-1.4°C 58% Calm Calm -- 30.74 in1041.0 mb 0.00 in0.0 mm 0.00 in0.0 mm 0.00 in0.0 mm
11:34 AM 37.6°F3.1°C 28.7°F-1.8°C 55% 1.6 mph SSE2.6 kmh SSE 1.6 mph2.6 kmh 30.74 in1041.0 mb 0.00 in0.0 mm 0.00 in0.0 mm 0.00 in0.0 mm
11:37 AM 38.1°F3.4°C 29.4°F-1.4°C 57% 4.6 mph W7.4 kmh W 4.6 mph7.4 kmh 30.74 in1041.0 mb 0.00 in0.0 mm 0.00 in0.0 mm 0.00 in0.0 mm
11:40 AM 38.2°F3.4°C 29.9°F-1.2°C 57% 2.0 mph SSW3.2 kmh SSW 2.0 mph3.2 kmh 30.74 in1041.0 mb 0.00 in0.0 mm 0.00 in0.0 mm 0.00 in0.0 mm
11:43 AM 38.4°F3.6°C 29.9°F-1.2°C 57% 2.0 mph S3.2 kmh S 2.0 mph3.2 kmh 30.74 in1041.0 mb 0.00 in0.0 mm 0.00 in0.0 mm 0.00 in0.0 mm
11:46 AM 39.0°F3.9°C 29.9°F-1.2°C 57% 2.4 mph SW3.9 kmh SW 2.4 mph3.9 kmh 30.74 in1041.0 mb 0.00 in0.0 mm 0.00 in0.0 mm 0.00 in0.0 mm
11:49 AM 39.2°F4.0°C 31.0°F-0.6°C 58% 1.6 mph SSW2.6 kmh SSW 1.6 mph2.6 kmh 30.74 in1041.0 mb 0.00 in0.0 mm 0.00 in0.0 mm 0.00 in0.0 mm
11:52 AM 38.9°F3.8°C 29.8°F-1.2°C 55% 2.8 mph SW4.5 kmh SW 2.9 mph4.7 kmh 30.74 in1041.0 mb 0.00 in0.0 mm 0.00 in0.0 mm 0.00 in0.0 mm
11:55 AM 39.4°F4.1°C 30.5°F-0.8°C 56% 1.9 mph NNW3.1 kmh NNW 1.9 mph3.1 kmh 30.73 in1040.6 mb 0.00 in0.0 mm 0.00 in0.0 mm 0.00 in0.0 mm
11:58 AM 40.2°F4.6°C 31.5°F-0.3°C 58% 1.6 mph NNW2.6 kmh NNW 1.6 mph2.6 kmh 30.73 in1040.6 mb 0.00 in0.0 mm 0.00 in0.0 mm 0.00 in0.0 mm
12:01 PM 39.5°F4.2°C 31.6°F-0.2°C 57% 3.2 mph SSW5.1 kmh SSW 3.2 mph5.1 kmh 30.73 in1040.6 mb 0.00 in0.0 mm 0.00 in0.0 mm 0.00 in0.0 mm
12:04 PM 40.8°F4.9°C 32.0°F0.0°C 57% 5.0 mph WSW8.0 kmh WSW 5.0 mph8.0 kmh 30.73 in1040.6 mb 0.00 in0.0 mm 0.00 in0.0 mm 0.00 in0.0 mm
12:07 PM 40.8°F4.9°C 32.5°F0.3°C 58% 3.2 mph WSW5.1 kmh WSW 3.2 mph5.1 kmh 30.73 in1040.6 mb 0.00 in0.0 mm 0.00 in0.0 mm 0.00 in0.0 mm
12:10 PM 40.6°F4.8°C 31.9°F-0.1°C 56% 3.2 mph W5.1 kmh W 3.3 mph5.3 kmh 30.73 in1040.6 mb 0.00 in0.0 mm 0.00 in0.0 mm 0.00 in0.0 mm
12:13 PM 41.0°F5.0°C 32.4°F0.2°C 56% 6.4 mph NNW10.3 kmh NNW 6.4 mph10.3 kmh 30.73 in1040.6 mb 0.00 in0.0 mm 0.00 in0.0 mm 0.00 in0.0 mm
12:16 PM 41.0°F5.0°C 32.1°F0.1°C 55% 5.3 mph NNW8.5 kmh NNW 5.3 mph8.5 kmh 30.73 in1040.6 mb 0.00 in0.0 mm 0.00 in0.0 mm 0.00 in0.0 mm
12:19 PM 41.6°F5.3°C 32.5°F0.3°C 56% 6.9 mph NNW11.1 kmh NNW 6.9 mph11.1 kmh 30.72 in1040.3 mb 0.00 in0.0 mm 0.00 in0.0 mm 0.00 in0.0 mm
12:22 PM 40.6°F4.8°C 30.3°F-0.9°C 51% 2.7 mph NNW4.3 kmh NNW 2.7 mph4.3 kmh 30.72 in1040.3 mb 0.00 in0.0 mm 0.00 in0.0 mm 0.00 in0.0 mm
12:25 PM 41.1°F5.1°C 29.5°F-1.4°C 49% 2.8 mph SSE4.5 kmh SSE 2.8 mph4.5 kmh 30.72 in1040.3 mb 0.00 in0.0 mm 0.00 in0.0 mm 0.00 in0.0 mm
12:31 PM 41.1°F5.1°C 27.8°F-2.3°C 46% 3.6 mph S5.8 kmh S 3.6 mph5.8 kmh 30.72 in1040.3 mb 0.00 in0.0 mm 0.00 in0.0 mm 0.00 in0.0 mm
12:34 PM 40.9°F4.9°C 27.9°F-2.3°C 46% 4.0 mph NNW6.4 kmh NNW 4.1 mph6.6 kmh 30.72 in1040.3 mb 0.00 in0.0 mm 0.00 in0.0 mm 0.00 in0.0 mm
12:37 PM 40.7°F4.8°C 28.5°F-1.9°C 47% 4.0 mph S6.4 kmh S 4.0 mph6.4 kmh 30.72 in1040.3 mb 0.00 in0.0 mm 0.00 in0.0 mm 0.00 in0.0 mm
12:40 PM 40.9°F4.9°C 28.2°F-2.1°C 47% 2.8 mph S4.5 kmh S 2.8 mph4.5 kmh 30.71 in1040.0 mb 0.00 in0.0 mm 0.00 in0.0 mm 0.00 in0.0 mm
12:43 PM 40.4°F4.7°C 28.2°F-2.1°C 46% 3.2 mph SSE5.1 kmh SSE 3.3 mph5.3 kmh 30.71 in1040.0 mb 0.00 in0.0 mm 0.00 in0.0 mm 0.00 in0.0 mm
12:46 PM 41.3°F5.2°C 29.4°F-1.4°C 48% 1.2 mph NNW1.9 kmh NNW 1.2 mph1.9 kmh 30.71 in1040.0 mb 0.00 in0.0 mm 0.00 in0.0 mm 0.00 in0.0 mm
12:49 PM 41.8°F5.4°C 28.5°F-1.9°C 46% 4.1 mph SW6.6 kmh SW 4.1 mph6.6 kmh 30.71 in1040.0 mb 0.00 in0.0 mm 0.00 in0.0 mm 0.00 in0.0 mm
12:55 PM 42.1°F5.6°C 27.8°F-2.3°C 44% 6.4 mph SW10.3 kmh SW 6.4 mph10.3 kmh 30.71 in1040.0 mb 0.00 in0.0 mm 0.00 in0.0 mm 0.00 in0.0 mm
12:58 PM 42.2°F5.7°C 28.6°F-1.9°C 45% 2.0 mph SW3.2 kmh SW 2.0 mph3.2 kmh 30.71 in1040.0 mb 0.00 in0.0 mm 0.00 in0.0 mm 0.00 in0.0 mm
01:01 PM 41.7°F5.4°C 27.3°F-2.6°C 43% 4.0 mph SW6.4 kmh SW 4.1 mph6.6 kmh 30.71 in1040.0 mb 0.00 in0.0 mm 0.00 in0.0 mm 0.00 in0.0 mm
01:04 PM 42.2°F5.7°C 28.2°F-2.1°C 45% 1.6 mph NNW2.6 kmh NNW 1.6 mph2.6 kmh 30.71 in1040.0 mb 0.00 in0.0 mm 0.00 in0.0 mm 0.00 in0.0 mm
01:07 PM 42.4°F5.8°C 28.7°F-1.8°C 45% 2.0 mph SSW3.2 kmh SSW 2.0 mph3.2 kmh 30.71 in1040.0 mb 0.00 in0.0 mm 0.00 in0.0 mm 0.00 in0.0 mm
01:10 PM 41.3°F5.2°C 26.4°F-3.1°C 41% 3.1 mph SE5.0 kmh SE 3.1 mph5.0 kmh 30.71 in1040.0 mb 0.00 in0.0 mm 0.00 in0.0 mm 0.00 in0.0 mm
01:13 PM 42.0°F5.6°C 26.9°F-2.8°C 42% 3.2 mph NNW5.1 kmh NNW 3.2 mph5.1 kmh 30.70 in1039.6 mb 0.00 in0.0 mm 0.00 in0.0 mm 0.00 in0.0 mm
01:16 PM 42.7°F5.9°C 27.8°F-2.3°C 43% 3.2 mph S5.1 kmh S 3.2 mph5.1 kmh 30.71 in1040.0 mb 0.00 in0.0 mm 0.00 in0.0 mm 0.00 in0.0 mm
01:19 PM 42.5°F5.8°C 28.0°F-2.2°C 43% 3.7 mph SW6.0 kmh SW 3.7 mph6.0 kmh 30.70 in1039.6 mb 0.00 in0.0 mm 0.00 in0.0 mm 0.00 in0.0 mm
01:22 PM 42.4°F5.8°C 27.5°F-2.5°C 42% 2.8 mph S4.5 kmh S 2.9 mph4.7 kmh 30.70 in1039.6 mb 0.00 in0.0 mm 0.00 in0.0 mm 0.00 in0.0 mm
01:25 PM 42.2°F5.7°C 26.9°F-2.8°C 41% 4.9 mph SW7.9 kmh SW 4.9 mph7.9 kmh 30.70 in1039.6 mb 0.00 in0.0 mm 0.00 in0.0 mm 0.00 in0.0 mm
01:28 PM 42.2°F5.7°C 27.3°F-2.6°C 41% 2.8 mph SW4.5 kmh SW 2.8 mph4.5 kmh 30.70 in1039.6 mb 0.00 in0.0 mm 0.00 in0.0 mm 0.00 in0.0 mm
01:31 PM 43.1°F6.2°C 28.1°F-2.2°C 43% 1.6 mph NNW2.6 kmh NNW 1.6 mph2.6 kmh 30.69 in1039.3 mb 0.00 in0.0 mm 0.00 in0.0 mm 0.00 in0.0 mm
01:34 PM 43.5°F6.4°C 28.5°F-1.9°C 43% 2.7 mph SE4.3 kmh SE 2.7 mph4.3 kmh 30.69 in1039.3 mb 0.00 in0.0 mm 0.00 in0.0 mm 0.00 in0.0 mm
01:37 PM 42.9°F6.1°C 27.0°F-2.8°C 40% 2.0 mph NNW3.2 kmh NNW 2.0 mph3.2 kmh 30.69 in1039.3 mb 0.00 in0.0 mm 0.00 in0.0 mm 0.00 in0.0 mm
01:40 PM 43.0°F6.1°C 27.0°F-2.8°C 40% 0.8 mph SW1.3 kmh SW 0.8 mph1.3 kmh 30.69 in1039.3 mb 0.00 in0.0 mm 0.00 in0.0 mm 0.00 in0.0 mm
01:43 PM 43.4°F6.3°C 27.4°F-2.6°C 41% 3.6 mph SW5.8 kmh SW 3.7 mph6.0 kmh 30.69 in1039.3 mb 0.00 in0.0 mm 0.00 in0.0 mm 0.00 in0.0 mm
01:46 PM 43.4°F6.3°C 26.7°F-2.9°C 39% 3.4 mph W5.5 kmh W 3.4 mph5.5 kmh 30.69 in1039.3 mb 0.00 in0.0 mm 0.00 in0.0 mm 0.00 in0.0 mm
01:49 PM 43.4°F6.3°C 27.6°F-2.4°C 40% 2.4 mph SSE3.9 kmh SSE 2.4 mph3.9 kmh 30.69 in1039.3 mb 0.00 in0.0 mm 0.00 in0.0 mm 0.00 in0.0 mm
01:52 PM 43.8°F6.6°C 27.4°F-2.6°C 40% 5.6 mph SSW9.0 kmh SSW 5.7 mph9.2 kmh 30.69 in1039.3 mb 0.00 in0.0 mm 0.00 in0.0 mm 0.00 in0.0 mm
01:55 PM 43.7°F6.5°C 27.1°F-2.7°C 39% 4.6 mph NNW7.4 kmh NNW 4.6 mph7.4 kmh 30.69 in1039.3 mb 0.00 in0.0 mm 0.00 in0.0 mm 0.00 in0.0 mm
01:58 PM 44.2°F6.8°C 28.5°F-1.9°C 42% 0.8 mph NNW1.3 kmh NNW 0.8 mph1.3 kmh 30.69 in1039.3 mb 0.00 in0.0 mm 0.00 in0.0 mm 0.00 in0.0 mm
02:01 PM 44.2°F6.8°C 28.6°F-1.9°C 42% 2.8 mph WNW4.5 kmh WNW 2.8 mph4.5 kmh 30.69 in1039.3 mb 0.00 in0.0 mm 0.00 in0.0 mm 0.00 in0.0 mm
02:04 PM 44.3°F6.8°C 29.7°F-1.3°C 43% 4.5 mph W7.2 kmh W 4.5 mph7.2 kmh 30.69 in1039.3 mb 0.00 in0.0 mm 0.00 in0.0 mm 0.00 in0.0 mm
02:07 PM 44.2°F6.8°C 29.0°F-1.7°C 42% 2.4 mph SW3.9 kmh SW 2.4 mph3.9 kmh 30.69 in1039.3 mb 0.00 in0.0 mm 0.00 in0.0 mm 0.00 in0.0 mm
02:10 PM 43.9°F6.6°C 28.9°F-1.7°C 42% 3.2 mph SW5.1 kmh SW 3.3 mph5.3 kmh 30.69 in1039.3 mb 0.00 in0.0 mm 0.00 in0.0 mm 0.00 in0.0 mm
02:13 PM 43.9°F6.6°C 29.4°F-1.4°C 43% 3.2 mph SW5.1 kmh SW 3.3 mph5.3 kmh 30.69 in1039.3 mb 0.00 in0.0 mm 0.00 in0.0 mm 0.00 in0.0 mm
02:16 PM 43.7°F6.5°C 29.0°F-1.7°C 42% 2.6 mph WSW4.2 kmh WSW 2.6 mph4.2 kmh 30.69 in1039.3 mb 0.00 in0.0 mm 0.00 in0.0 mm 0.00 in0.0 mm
02:19 PM 44.0°F6.7°C 28.5°F-1.9°C 41% 0.4 mph SW0.6 kmh SW 0.4 mph0.6 kmh 30.69 in1039.3 mb 0.00 in0.0 mm 0.00 in0.0 mm 0.00 in0.0 mm
02:22 PM 44.2°F6.8°C 29.9°F-1.2°C 43% 3.6 mph NNW5.8 kmh NNW 3.6 mph5.8 kmh 30.68 in1038.9 mb 0.00 in0.0 mm 0.00 in0.0 mm 0.00 in0.0 mm
02:25 PM 43.8°F6.6°C 29.8°F-1.2°C 43% 0.8 mph NW1.3 kmh NW 0.8 mph1.3 kmh 30.68 in1038.9 mb 0.00 in0.0 mm 0.00 in0.0 mm 0.00 in0.0 mm
02:28 PM 43.5°F6.4°C 30.2°F-1.0°C 44% 3.6 mph NW5.8 kmh NW 3.7 mph6.0 kmh 30.68 in1038.9 mb 0.00 in0.0 mm 0.00 in0.0 mm 0.00 in0.0 mm
02:31 PM 42.5°F5.8°C 30.9°F-0.6°C 45% 1.9 mph 3.1 kmh 1.9 mph3.1 kmh 30.68 in1038.9 mb 0.00 in0.0 mm 0.00 in0.0 mm 0.00 in0.0 mm
02:34 PM 42.4°F5.8°C 29.7°F-1.3°C 43% 1.6 mph 2.6 kmh 1.6 mph2.6 kmh 30.68 in1038.9 mb 0.00 in0.0 mm 0.00 in0.0 mm 0.00 in0.0 mm
02:37 PM 42.9°F6.1°C 29.1°F-1.6°C 42% 0.4 mph SW0.6 kmh SW 0.4 mph0.6 kmh 30.68 in1038.9 mb 0.00 in0.0 mm 0.00 in0.0 mm 0.00 in0.0 mm
02:40 PM 43.0°F6.1°C 29.3°F-1.5°C 43% 1.5 mph NNW2.4 kmh NNW 1.6 mph2.6 kmh 30.68 in1038.9 mb 0.00 in0.0 mm 0.00 in0.0 mm 0.00 in0.0 mm
02:43 PM 42.6°F5.9°C 28.5°F-1.9°C 42% 0.8 mph SSW1.3 kmh SSW 0.8 mph1.3 kmh 30.67 in1038.6 mb 0.00 in0.0 mm 0.00 in0.0 mm 0.00 in0.0 mm
02:46 PM 42.7°F5.9°C 28.1°F-2.2°C 41% 3.2 mph W5.1 kmh W 3.3 mph5.3 kmh 30.67 in1038.6 mb 0.00 in0.0 mm 0.00 in0.0 mm 0.00 in0.0 mm
02:49 PM 43.0°F6.1°C 29.0°F-1.7°C 43% 1.9 mph W3.1 kmh W 1.9 mph3.1 kmh 30.67 in1038.6 mb 0.00 in0.0 mm 0.00 in0.0 mm 0.00 in0.0 mm
02:52 PM 42.9°F6.1°C 29.3°F-1.5°C 43% 2.0 mph SW3.2 kmh SW 2.0 mph3.2 kmh 30.67 in1038.6 mb 0.00 in0.0 mm 0.00 in0.0 mm 0.00 in0.0 mm
02:55 PM 42.6°F5.9°C 28.3°F-2.1°C 41% 2.0 mph SSW3.2 kmh SSW 2.0 mph3.2 kmh 30.67 in1038.6 mb 0.00 in0.0 mm 0.00 in0.0 mm 0.00 in0.0 mm
02:58 PM 41.9°F5.5°C 26.8°F-2.9°C 39% 1.5 mph SSE2.4 kmh SSE 1.6 mph2.6 kmh 30.67 in1038.6 mb 0.00 in0.0 mm 0.00 in0.0 mm 0.00 in0.0 mm
03:01 PM 42.2°F5.7°C 27.9°F-2.3°C 41% 2.3 mph S3.7 kmh S 2.4 mph3.9 kmh 30.67 in1038.6 mb 0.00 in0.0 mm 0.00 in0.0 mm 0.00 in0.0 mm
03:04 PM 42.6°F5.9°C 28.7°F-1.8°C 43% 3.6 mph SW5.8 kmh SW 3.7 mph6.0 kmh 30.68 in1038.9 mb 0.00 in0.0 mm 0.00 in0.0 mm 0.00 in0.0 mm
03:07 PM 43.1°F6.2°C 29.2°F-1.6°C 44% 1.2 mph NW1.9 kmh NW 1.2 mph1.9 kmh 30.67 in1038.6 mb 0.00 in0.0 mm 0.00 in0.0 mm 0.00 in0.0 mm
03:10 PM 43.3°F6.3°C 29.9°F-1.2°C 44% 1.9 mph SW3.1 kmh SW 2.0 mph3.2 kmh 30.68 in1038.9 mb 0.00 in0.0 mm 0.00 in0.0 mm 0.00 in0.0 mm
03:13 PM 43.0°F6.1°C 29.2°F-1.6°C 43% 1.6 mph SW2.6 kmh SW 1.6 mph2.6 kmh 30.68 in1038.9 mb 0.00 in0.0 mm 0.00 in0.0 mm 0.00 in0.0 mm
03:16 PM 43.4°F6.3°C 29.6°F-1.3°C 44% 2.0 mph NW3.2 kmh NW 2.0 mph3.2 kmh 30.67 in1038.6 mb 0.00 in0.0 mm 0.00 in0.0 mm 0.00 in0.0 mm
03:19 PM 43.1°F6.2°C 29.7°F-1.3°C 44% 2.7 mph NW4.3 kmh NW 2.9 mph4.7 kmh 30.68 in1038.9 mb 0.00 in0.0 mm 0.00 in0.0 mm 0.00 in0.0 mm
03:22 PM 43.0°F6.1°C 29.0°F-1.7°C 42% 2.0 mph NW3.2 kmh NW 2.0 mph3.2 kmh 30.67 in1038.6 mb 0.00 in0.0 mm 0.00 in0.0 mm 0.00 in0.0 mm
03:25 PM 43.0°F6.1°C 29.1°F-1.6°C 43% Calm Calm -- 30.67 in1038.6 mb 0.00 in0.0 mm 0.00 in0.0 mm 0.00 in0.0 mm
03:28 PM 42.7°F5.9°C 29.6°F-1.3°C 44% 0.8 mph NW1.3 kmh NW 0.8 mph1.3 kmh 30.67 in1038.6 mb 0.00 in0.0 mm 0.00 in0.0 mm 0.00 in0.0 mm
03:31 PM 42.8°F6.0°C 29.7°F-1.3°C 44% Calm Calm -- 30.67 in1038.6 mb 0.00 in0.0 mm 0.00 in0.0 mm 0.00 in0.0 mm
03:34 PM 42.7°F5.9°C 29.6°F-1.3°C 44% Calm Calm -- 30.67 in1038.6 mb 0.00 in0.0 mm 0.00 in0.0 mm 0.00 in0.0 mm
03:37 PM 42.6°F5.9°C 29.6°F-1.3°C 44% Calm Calm -- 30.68 in1038.9 mb 0.00 in0.0 mm 0.00 in0.0 mm 0.00 in0.0 mm
03:40 PM 42.2°F5.7°C 29.3°F-1.5°C 44% Calm Calm -- 30.67 in1038.6 mb 0.00 in0.0 mm 0.00 in0.0 mm 0.00 in0.0 mm
03:43 PM 42.2°F5.7°C 29.3°F-1.5°C 44% Calm Calm -- 30.67 in1038.6 mb 0.00 in0.0 mm 0.00 in0.0 mm 0.00 in0.0 mm
03:46 PM 42.4°F5.8°C 29.6°F-1.3°C 44% Calm Calm -- 30.67 in1038.6 mb 0.00 in0.0 mm 0.00 in0.0 mm 0.00 in0.0 mm
03:49 PM 42.2°F5.7°C 29.3°F-1.5°C 43% 0.8 mph SW1.3 kmh SW 0.8 mph1.3 kmh 30.67 in1038.6 mb 0.00 in0.0 mm 0.00 in0.0 mm 0.00 in0.0 mm
03:52 PM 41.8°F5.4°C 27.5°F-2.5°C 41% 2.0 mph S3.2 kmh S 2.0 mph3.2 kmh 30.67 in1038.6 mb 0.00 in0.0 mm 0.00 in0.0 mm 0.00 in0.0 mm
03:55 PM 42.0°F5.6°C 26.7°F-2.9°C 40% 1.2 mph SW1.9 kmh SW 1.2 mph1.9 kmh 30.67 in1038.6 mb 0.00 in0.0 mm 0.00 in0.0 mm 0.00 in0.0 mm
03:58 PM 42.0°F5.6°C 27.1°F-2.7°C 40% 1.2 mph NNW1.9 kmh NNW 1.2 mph1.9 kmh 30.67 in1038.6 mb 0.00 in0.0 mm 0.00 in0.0 mm 0.00 in0.0 mm
04:01 PM 42.0°F5.6°C 27.4°F-2.6°C 41% 0.4 mph W0.6 kmh W 0.4 mph0.6 kmh 30.67 in1038.6 mb 0.00 in0.0 mm 0.00 in0.0 mm 0.00 in0.0 mm
04:04 PM 41.8°F5.4°C 26.4°F-3.1°C 39% Calm Calm -- 30.66 in1038.3 mb 0.00 in0.0 mm 0.00 in0.0 mm 0.00 in0.0 mm
04:07 PM 42.1°F5.6°C 26.1°F-3.3°C 39% Calm Calm -- 30.67 in1038.6 mb 0.00 in0.0 mm 0.00 in0.0 mm 0.00 in0.0 mm
04:10 PM 41.9°F5.5°C 26.1°F-3.3°C 39% Calm Calm -- 30.66 in1038.3 mb 0.00 in0.0 mm 0.00 in0.0 mm 0.00 in0.0 mm
04:13 PM 41.8°F5.4°C 26.5°F-3.1°C 40% Calm Calm -- 30.67 in1038.6 mb 0.00 in0.0 mm 0.00 in0.0 mm 0.00 in0.0 mm
04:16 PM 41.8°F5.4°C 26.9°F-2.8°C 41% Calm Calm -- 30.67 in1038.6 mb 0.00 in0.0 mm 0.00 in0.0 mm 0.00 in0.0 mm
04:19 PM 41.8°F5.4°C 28.9°F-1.7°C 45% Calm Calm -- 30.67 in1038.6 mb 0.00 in0.0 mm 0.00 in0.0 mm 0.00 in0.0 mm
04:22 PM 41.7°F5.4°C 30.7°F-0.7°C 47% Calm Calm -- 30.67 in1038.6 mb 0.00 in0.0 mm 0.00 in0.0 mm 0.00 in0.0 mm
04:25 PM 41.6°F5.3°C 28.8°F-1.8°C 44% Calm Calm -- 30.67 in1038.6 mb 0.00 in0.0 mm 0.00 in0.0 mm 0.00 in0.0 mm
04:28 PM 41.7°F5.4°C 28.4°F-2.0°C 44% Calm Calm -- 30.67 in1038.6 mb 0.00 in0.0 mm 0.00 in0.0 mm 0.00 in0.0 mm
04:31 PM 41.5°F5.3°C 28.3°F-2.1°C 44% Calm Calm -- 30.68 in1038.9 mb 0.00 in0.0 mm 0.00 in0.0 mm 0.00 in0.0 mm
04:34 PM 41.2°F5.1°C 27.7°F-2.4°C 43% Calm Calm -- 30.68 in1038.9 mb 0.00 in0.0 mm 0.00 in0.0 mm 0.00 in0.0 mm
04:37 PM 41.3°F5.2°C 27.6°F-2.4°C 43% Calm Calm -- 30.68 in1038.9 mb 0.00 in0.0 mm 0.00 in0.0 mm 0.00 in0.0 mm
04:40 PM 41.3°F5.2°C 27.9°F-2.3°C 43% Calm Calm -- 30.67 in1038.6 mb 0.00 in0.0 mm 0.00 in0.0 mm 0.00 in0.0 mm
04:43 PM 41.5°F5.3°C 27.0°F-2.8°C 42% Calm Calm -- 30.68 in1038.9 mb 0.00 in0.0 mm 0.00 in0.0 mm 0.00 in0.0 mm
04:49 PM 40.9°F4.9°C 28.7°F-1.8°C 45% Calm Calm -- 30.68 in1038.9 mb 0.00 in0.0 mm 0.00 in0.0 mm 0.00 in0.0 mm
04:52 PM 40.6°F4.8°C 29.2°F-1.6°C 46% Calm Calm -- 30.68 in1038.9 mb 0.00 in0.0 mm 0.00 in0.0 mm 0.00 in0.0 mm
04:55 PM 40.1°F4.5°C 30.3°F-0.9°C 48% Calm Calm -- 30.69 in1039.3 mb 0.00 in0.0 mm 0.00 in0.0 mm 0.00 in0.0 mm
04:58 PM 39.9°F4.4°C 31.0°F-0.6°C 49% Calm Calm -- 30.68 in1038.9 mb 0.00 in0.0 mm 0.00 in0.0 mm 0.00 in0.0 mm
05:01 PM 39.8°F4.3°C 30.8°F-0.7°C 49% Calm Calm -- 30.68 in1038.9 mb 0.00 in0.0 mm 0.00 in0.0 mm 0.00 in0.0 mm
05:04 PM 39.7°F4.3°C 31.0°F-0.6°C 50% Calm Calm -- 30.67 in1038.6 mb 0.00 in0.0 mm 0.00 in0.0 mm 0.00 in0.0 mm
05:07 PM 39.5°F4.2°C 31.1°F-0.5°C 50% Calm Calm -- 30.67 in1038.6 mb 0.00 in0.0 mm 0.00 in0.0 mm 0.00 in0.0 mm
05:10 PM 38.9°F3.8°C 31.7°F-0.2°C 52% Calm Calm -- 30.67 in1038.6 mb 0.00 in0.0 mm 0.00 in0.0 mm 0.00 in0.0 mm
05:13 PM 38.4°F3.6°C 32.1°F0.1°C 53% Calm Calm -- 30.67 in1038.6 mb 0.00 in0.0 mm 0.00 in0.0 mm 0.00 in0.0 mm
05:16 PM 38.0°F3.3°C 32.1°F0.1°C 53% Calm Calm -- 30.68 in1038.9 mb 0.00 in0.0 mm 0.00 in0.0 mm 0.00 in0.0 mm
05:19 PM 37.6°F3.1°C 31.9°F-0.1°C 53% Calm Calm -- 30.68 in1038.9 mb 0.00 in0.0 mm 0.00 in0.0 mm 0.00 in0.0 mm
05:22 PM 38.1°F3.4°C 30.9°F-0.6°C 52% Calm Calm -- 30.68 in1038.9 mb 0.00 in0.0 mm 0.00 in0.0 mm 0.00 in0.0 mm
05:25 PM 37.9°F3.3°C 30.2°F-1.0°C 51% Calm Calm -- 30.68 in1038.9 mb 0.00 in0.0 mm 0.00 in0.0 mm 0.00 in0.0 mm
05:28 PM 37.4°F3.0°C 29.9°F-1.2°C 50% Calm Calm -- 30.67 in1038.6 mb 0.00 in0.0 mm 0.00 in0.0 mm 0.00 in0.0 mm
05:31 PM 37.0°F2.8°C 30.1°F-1.1°C 51% Calm Calm -- 30.67 in1038.6 mb 0.00 in0.0 mm 0.00 in0.0 mm 0.00 in0.0 mm
05:34 PM 36.3°F2.4°C 30.2°F-1.0°C 51% Calm Calm -- 30.68 in1038.9 mb 0.00 in0.0 mm 0.00 in0.0 mm 0.00 in0.0 mm
05:37 PM 35.3°F1.8°C 30.2°F-1.0°C 52% Calm Calm -- 30.68 in1038.9 mb 0.00 in0.0 mm 0.00 in0.0 mm 0.00 in0.0 mm
05:40 PM 35.0°F1.7°C 30.3°F-0.9°C 53% Calm Calm -- 30.67 in1038.6 mb 0.00 in0.0 mm 0.00 in0.0 mm 0.00 in0.0 mm
05:43 PM 34.6°F1.4°C 31.5°F-0.3°C 56% Calm Calm -- 30.67 in1038.6 mb 0.00 in0.0 mm 0.00 in0.0 mm 0.00 in0.0 mm
05:46 PM 33.7°F0.9°C 31.9°F-0.1°C 57% Calm Calm -- 30.67 in1038.6 mb 0.00 in0.0 mm 0.00 in0.0 mm 0.00 in0.0 mm
05:49 PM 33.1°F0.6°C 32.0°F0.0°C 58% Calm Calm -- 30.67 in1038.6 mb 0.00 in0.0 mm 0.00 in0.0 mm 0.00 in0.0 mm
05:52 PM 33.4°F0.8°C 31.6°F-0.2°C 58% Calm Calm -- 30.67 in1038.6 mb 0.00 in0.0 mm 0.00 in0.0 mm 0.00 in0.0 mm
05:55 PM 32.7°F0.4°C 32.1°F0.1°C 60% Calm Calm -- 30.68 in1038.9 mb 0.00 in0.0 mm 0.00 in0.0 mm 0.00 in0.0 mm
05:58 PM 33.5°F0.8°C 31.2°F-0.4°C 58% Calm Calm -- 30.68 in1038.9 mb 0.00 in0.0 mm 0.00 in0.0 mm 0.00 in0.0 mm
06:01 PM 32.5°F0.3°C 31.5°F-0.3°C 59% Calm Calm -- 30.68 in1038.9 mb 0.00 in0.0 mm 0.00 in0.0 mm 0.00 in0.0 mm
06:04 PM 32.6°F0.3°C 31.4°F-0.3°C 59% Calm Calm -- 30.68 in1038.9 mb 0.00 in0.0 mm 0.00 in0.0 mm 0.00 in0.0 mm
06:07 PM 32.2°F0.1°C 31.6°F-0.2°C 60% Calm Calm -- 30.68 in1038.9 mb 0.00 in0.0 mm 0.00 in0.0 mm 0.00 in0.0 mm
06:10 PM 32.7°F0.4°C 32.0°F0.0°C 61% Calm Calm -- 30.68 in1038.9 mb 0.00 in0.0 mm 0.00 in0.0 mm 0.00 in0.0 mm
06:13 PM 32.2°F0.1°C 31.7°F-0.2°C 61% Calm Calm -- 30.67 in1038.6 mb 0.00 in0.0 mm 0.00 in0.0 mm 0.00 in0.0 mm
06:16 PM 31.9°F-0.1°C 31.9°F-0.1°C 62% Calm Calm -- 30.68 in1038.9 mb 0.00 in0.0 mm 0.00 in0.0 mm 0.00 in0.0 mm
06:19 PM 31.1°F-0.5°C 31.9°F-0.1°C 62% Calm Calm -- 30.68 in1038.9 mb 0.00 in0.0 mm 0.00 in0.0 mm 0.00 in0.0 mm
06:22 PM 31.4°F-0.3°C 31.6°F-0.2°C 62% Calm Calm -- 30.68 in1038.9 mb 0.00 in0.0 mm 0.00 in0.0 mm 0.00 in0.0 mm
06:25 PM 30.3°F-0.9°C 31.9°F-0.1°C 63% Calm Calm -- 30.68 in1038.9 mb 0.00 in0.0 mm 0.00 in0.0 mm 0.00 in0.0 mm
06:28 PM 31.1°F-0.5°C 31.8°F-0.1°C 63% Calm Calm -- 30.68 in1038.9 mb 0.00 in0.0 mm 0.00 in0.0 mm 0.00 in0.0 mm
06:31 PM 31.0°F-0.6°C 31.8°F-0.1°C 64% Calm Calm -- 30.67 in1038.6 mb 0.00 in0.0 mm 0.00 in0.0 mm 0.00 in0.0 mm
06:34 PM 30.5°F-0.8°C 31.9°F-0.1°C 64% Calm Calm -- 30.68 in1038.9 mb 0.00 in0.0 mm 0.00 in0.0 mm 0.00 in0.0 mm
06:37 PM 30.2°F-1.0°C 31.3°F-0.4°C 63% Calm Calm -- 30.68 in1038.9 mb 0.00 in0.0 mm 0.00 in0.0 mm 0.00 in0.0 mm
06:40 PM 29.8°F-1.2°C 31.0°F-0.6°C 63% Calm Calm -- 30.68 in1038.9 mb 0.00 in0.0 mm 0.00 in0.0 mm 0.00 in0.0 mm
06:43 PM 29.6°F-1.3°C 31.3°F-0.4°C 64% Calm Calm -- 30.68 in1038.9 mb 0.00 in0.0 mm 0.00 in0.0 mm 0.00 in0.0 mm
06:46 PM 29.9°F-1.2°C 31.4°F-0.3°C 65% Calm Calm -- 30.68 in1038.9 mb 0.00 in0.0 mm 0.00 in0.0 mm 0.00 in0.0 mm
06:49 PM 29.2°F-1.6°C 30.7°F-0.7°C 64% Calm Calm -- 30.68 in1038.9 mb 0.00 in0.0 mm 0.00 in0.0 mm 0.00 in0.0 mm
06:52 PM 29.1°F-1.6°C 31.2°F-0.4°C 66% Calm Calm -- 30.68 in1038.9 mb 0.00 in0.0 mm 0.00 in0.0 mm 0.00 in0.0 mm
06:55 PM 29.1°F-1.6°C 31.8°F-0.1°C 68% Calm Calm -- 30.68 in1038.9 mb 0.00 in0.0 mm 0.00 in0.0 mm 0.00 in0.0 mm
06:58 PM 29.6°F-1.3°C 32.5°F0.3°C 70% Calm Calm -- 30.68 in1038.9 mb 0.00 in0.0 mm 0.00 in0.0 mm 0.00 in0.0 mm
07:01 PM 28.6°F-1.9°C 32.3°F0.2°C 70% Calm Calm -- 30.67 in1038.6 mb 0.00 in0.0 mm 0.00 in0.0 mm 0.00 in0.0 mm
07:04 PM 28.6°F-1.9°C 31.4°F-0.3°C 68% Calm Calm -- 30.68 in1038.9 mb 0.00 in0.0 mm 0.00 in0.0 mm 0.00 in0.0 mm
07:07 PM 28.3°F-2.1°C 31.2°F-0.4°C 68% Calm Calm -- 30.68 in1038.9 mb 0.00 in0.0 mm 0.00 in0.0 mm 0.00 in0.0 mm
07:10 PM 28.6°F-1.9°C 31.3°F-0.4°C 69% Calm Calm -- 30.68 in1038.9 mb 0.00 in0.0 mm 0.00 in0.0 mm 0.00 in0.0 mm
07:13 PM 28.4°F-2.0°C 31.3°F-0.4°C 69% Calm Calm -- 30.69 in1039.3 mb 0.00 in0.0 mm 0.00 in0.0 mm 0.00 in0.0 mm
07:16 PM 28.5°F-1.9°C 31.0°F-0.6°C 69% Calm Calm -- 30.69 in1039.3 mb 0.00 in0.0 mm 0.00 in0.0 mm 0.00 in0.0 mm
07:19 PM 28.4°F-2.0°C 30.7°F-0.7°C 68% Calm Calm -- 30.68 in1038.9 mb 0.00 in0.0 mm 0.00 in0.0 mm 0.00 in0.0 mm
07:22 PM 28.4°F-2.0°C 30.4°F-0.9°C 67% Calm Calm -- 30.68 in1038.9 mb 0.00 in0.0 mm 0.00 in0.0 mm 0.00 in0.0 mm
07:25 PM 28.0°F-2.2°C 30.1°F-1.1°C 67% Calm Calm -- 30.67 in1038.6 mb 0.00 in0.0 mm 0.00 in0.0 mm 0.00 in0.0 mm
07:28 PM 28.0°F-2.2°C 29.9°F-1.2°C 67% Calm Calm -- 30.68 in1038.9 mb 0.00 in0.0 mm 0.00 in0.0 mm 0.00 in0.0 mm
07:31 PM 27.6°F-2.4°C 30.0°F-1.1°C 67% Calm Calm -- 30.67 in1038.6 mb 0.00 in0.0 mm 0.00 in0.0 mm 0.00 in0.0 mm
07:34 PM 27.4°F-2.6°C 29.5°F-1.4°C 67% Calm Calm -- 30.68 in1038.9 mb 0.00 in0.0 mm 0.00 in0.0 mm 0.00 in0.0 mm
07:37 PM 26.6°F-3.0°C 29.2°F-1.6°C 67% Calm Calm -- 30.68 in1038.9 mb 0.00 in0.0 mm 0.00 in0.0 mm 0.00 in0.0 mm
07:40 PM 26.7°F-2.9°C 29.2°F-1.6°C 67% Calm Calm -- 30.68 in1038.9 mb 0.00 in0.0 mm 0.00 in0.0 mm 0.00 in0.0 mm
07:43 PM 26.6°F-3.0°C 28.9°F-1.7°C 67% Calm Calm -- 30.68 in1038.9 mb 0.00 in0.0 mm 0.00 in0.0 mm 0.00 in0.0 mm
07:46 PM 26.9°F-2.8°C 29.0°F-1.7°C 67% Calm Calm -- 30.68 in1038.9 mb 0.00 in0.0 mm 0.00 in0.0 mm 0.00 in0.0 mm
07:49 PM 27.2°F-2.7°C 29.5°F-1.4°C 69% Calm Calm -- 30.68 in1038.9 mb 0.00 in0.0 mm 0.00 in0.0 mm 0.00 in0.0 mm
07:52 PM 26.9°F-2.8°C 29.7°F-1.3°C 69% Calm Calm -- 30.68 in1038.9 mb 0.00 in0.0 mm 0.00 in0.0 mm 0.00 in0.0 mm
07:55 PM 26.7°F-2.9°C 29.4°F-1.4°C 69% Calm Calm -- 30.68 in1038.9 mb 0.00 in0.0 mm 0.00 in0.0 mm 0.00 in0.0 mm
07:58 PM 27.2°F-2.7°C 29.4°F-1.4°C 69% Calm Calm -- 30.68 in1038.9 mb 0.00 in0.0 mm 0.00 in0.0 mm 0.00 in0.0 mm
08:01 PM 27.2°F-2.7°C 29.7°F-1.3°C 69% Calm Calm -- 30.68 in1038.9 mb 0.00 in0.0 mm 0.00 in0.0 mm 0.00 in0.0 mm
08:04 PM 26.8°F-2.9°C 29.3°F-1.5°C 69% Calm Calm -- 30.67 in1038.6 mb 0.00 in0.0 mm 0.00 in0.0 mm 0.00 in0.0 mm
08:07 PM 26.3°F-3.2°C 29.1°F-1.6°C 68% Calm Calm -- 30.67 in1038.6 mb 0.00 in0.0 mm 0.00 in0.0 mm 0.00 in0.0 mm
08:10 PM 25.8°F-3.4°C 28.8°F-1.8°C 68% Calm Calm -- 30.68 in1038.9 mb 0.00 in0.0 mm 0.00 in0.0 mm 0.00 in0.0 mm
08:13 PM 25.9°F-3.4°C 28.9°F-1.7°C 69% Calm Calm -- 30.67 in1038.6 mb 0.00 in0.0 mm 0.00 in0.0 mm 0.00 in0.0 mm
08:16 PM 26.0°F-3.3°C 29.1°F-1.6°C 70% Calm Calm -- 30.67 in1038.6 mb 0.00 in0.0 mm 0.00 in0.0 mm 0.00 in0.0 mm
08:19 PM 26.2°F-3.2°C 28.9°F-1.7°C 70% Calm Calm -- 30.67 in1038.6 mb 0.00 in0.0 mm 0.00 in0.0 mm 0.00 in0.0 mm
08:22 PM 26.2°F-3.2°C 28.7°F-1.8°C 70% Calm Calm -- 30.67 in1038.6 mb 0.00 in0.0 mm 0.00 in0.0 mm 0.00 in0.0 mm
08:25 PM 25.8°F-3.4°C 29.0°F-1.7°C 70% Calm Calm -- 30.67 in1038.6 mb 0.00 in0.0 mm 0.00 in0.0 mm 0.00 in0.0 mm
08:28 PM 25.6°F-3.6°C 29.0°F-1.7°C 70% Calm Calm -- 30.67 in1038.6 mb 0.00 in0.0 mm 0.00 in0.0 mm 0.00 in0.0 mm
08:31 PM 25.8°F-3.4°C 28.9°F-1.7°C 70% Calm Calm -- 30.67 in1038.6 mb 0.00 in0.0 mm 0.00 in0.0 mm 0.00 in0.0 mm
08:34 PM 25.8°F-3.4°C 28.6°F-1.9°C 71% Calm Calm -- 30.67 in1038.6 mb 0.00 in0.0 mm 0.00 in0.0 mm 0.00 in0.0 mm
08:37 PM 25.9°F-3.4°C 28.9°F-1.7°C 71% Calm Calm -- 30.67 in1038.6 mb 0.00 in0.0 mm 0.00 in0.0 mm 0.00 in0.0 mm
08:40 PM 26.2°F-3.2°C 28.9°F-1.7°C 71% Calm Calm -- 30.67 in1038.6 mb 0.00 in0.0 mm 0.00 in0.0 mm 0.00 in0.0 mm
08:43 PM 25.9°F-3.4°C 28.8°F-1.8°C 71% Calm Calm -- 30.67 in1038.6 mb 0.00 in0.0 mm 0.00 in0.0 mm 0.00 in0.0 mm
08:46 PM 25.5°F-3.6°C 28.8°F-1.8°C 71% Calm Calm -- 30.67 in1038.6 mb 0.00 in0.0 mm 0.00 in0.0 mm 0.00 in0.0 mm
08:49 PM 25.6°F-3.6°C 28.7°F-1.8°C 71% Calm Calm -- 30.67 in1038.6 mb 0.00 in0.0 mm 0.00 in0.0 mm 0.00 in0.0 mm
08:52 PM 25.5°F-3.6°C 28.9°F-1.7°C 72% Calm Calm -- 30.68 in1038.9 mb 0.00 in0.0 mm 0.00 in0.0 mm 0.00 in0.0 mm
08:55 PM 25.1°F-3.8°C 28.7°F-1.8°C 72% Calm Calm -- 30.67 in1038.6 mb 0.00 in0.0 mm 0.00 in0.0 mm 0.00 in0.0 mm
08:58 PM 25.4°F-3.7°C 28.5°F-1.9°C 72% Calm Calm -- 30.67 in1038.6 mb 0.00 in0.0 mm 0.00 in0.0 mm 0.00 in0.0 mm
09:01 PM 25.6°F-3.6°C 28.6°F-1.9°C 72% Calm Calm -- 30.67 in1038.6 mb 0.00 in0.0 mm 0.00 in0.0 mm 0.00 in0.0 mm
09:04 PM 25.5°F-3.6°C 28.6°F-1.9°C 72% Calm Calm -- 30.67 in1038.6 mb 0.00 in0.0 mm 0.00 in0.0 mm 0.00 in0.0 mm
09:07 PM 25.3°F-3.7°C 28.5°F-1.9°C 72% Calm Calm -- 30.67 in1038.6 mb 0.00 in0.0 mm 0.00 in0.0 mm 0.00 in0.0 mm
09:10 PM 25.5°F-3.6°C 28.5°F-1.9°C 72% Calm Calm -- 30.67 in1038.6 mb 0.00 in0.0 mm 0.00 in0.0 mm 0.00 in0.0 mm
09:13 PM 25.0°F-3.9°C 28.4°F-2.0°C 73% Calm Calm -- 30.67 in1038.6 mb 0.00 in0.0 mm 0.00 in0.0 mm 0.00 in0.0 mm
09:16 PM 24.7°F-4.1°C 28.1°F-2.2°C 72% Calm Calm -- 30.67 in1038.6 mb 0.00 in0.0 mm 0.00 in0.0 mm 0.00 in0.0 mm
09:19 PM 24.6°F-4.1°C 28.0°F-2.2°C 72% Calm Calm -- 30.67 in1038.6 mb 0.00 in0.0 mm 0.00 in0.0 mm 0.00 in0.0 mm
09:22 PM 24.8°F-4.0°C 27.8°F-2.3°C 72% Calm Calm -- 30.67 in1038.6 mb 0.00 in0.0 mm 0.00 in0.0 mm 0.00 in0.0 mm
09:25 PM 24.2°F-4.3°C 27.8°F-2.3°C 71% Calm Calm -- 30.67 in1038.6 mb 0.00 in0.0 mm 0.00 in0.0 mm 0.00 in0.0 mm
09:28 PM 24.6°F-4.1°C 27.5°F-2.5°C 71% Calm Calm -- 30.67 in1038.6 mb 0.00 in0.0 mm 0.00 in0.0 mm 0.00 in0.0 mm
09:31 PM 24.4°F-4.2°C 27.8°F-2.3°C 72% Calm Calm -- 30.67 in1038.6 mb 0.00 in0.0 mm 0.00 in0.0 mm 0.00 in0.0 mm
09:34 PM 24.5°F-4.2°C 27.8°F-2.3°C 73% Calm Calm -- 30.67 in1038.6 mb 0.00 in0.0 mm 0.00 in0.0 mm 0.00 in0.0 mm
09:37 PM 25.4°F-3.7°C 27.9°F-2.3°C 73% Calm Calm -- 30.67 in1038.6 mb 0.00 in0.0 mm 0.00 in0.0 mm 0.00 in0.0 mm
09:40 PM 25.1°F-3.8°C 27.7°F-2.4°C 73% Calm Calm -- 30.67 in1038.6 mb 0.00 in0.0 mm 0.00 in0.0 mm 0.00 in0.0 mm
09:43 PM 24.6°F-4.1°C 27.4°F-2.6°C 72% Calm Calm -- 30.68 in1038.9 mb 0.00 in0.0 mm 0.00 in0.0 mm 0.00 in0.0 mm
09:46 PM 24.1°F-4.4°C 27.4°F-2.6°C 73% Calm Calm -- 30.68 in1038.9 mb 0.00 in0.0 mm 0.00 in0.0 mm 0.00 in0.0 mm
09:49 PM 24.2°F-4.3°C 27.5°F-2.5°C 73% Calm Calm -- 30.68 in1038.9 mb 0.00 in0.0 mm 0.00 in0.0 mm 0.00 in0.0 mm
09:52 PM 24.6°F-4.1°C 27.5°F-2.5°C 73% Calm Calm -- 30.69 in1039.3 mb 0.00 in0.0 mm 0.00 in0.0 mm 0.00 in0.0 mm
09:55 PM 24.8°F-4.0°C 27.5°F-2.5°C 73% Calm Calm -- 30.68 in1038.9 mb 0.00 in0.0 mm 0.00 in0.0 mm 0.00 in0.0 mm
09:58 PM 24.6°F-4.1°C 27.4°F-2.6°C 73% Calm Calm -- 30.68 in1038.9 mb 0.00 in0.0 mm 0.00 in0.0 mm 0.00 in0.0 mm
10:01 PM 24.8°F-4.0°C 27.5°F-2.5°C 73% Calm Calm -- 30.68 in1038.9 mb 0.00 in0.0 mm 0.00 in0.0 mm 0.00 in0.0 mm
10:04 PM 24.4°F-4.2°C 27.4°F-2.6°C 74% Calm Calm -- 30.68 in1038.9 mb 0.00 in0.0 mm 0.00 in0.0 mm 0.00 in0.0 mm
10:07 PM 24.6°F-4.1°C 27.3°F-2.6°C 74% Calm Calm -- 30.68 in1038.9 mb 0.00 in0.0 mm 0.00 in0.0 mm 0.00 in0.0 mm
10:10 PM 24.2°F-4.3°C 27.3°F-2.6°C 74% Calm Calm -- 30.68 in1038.9 mb 0.00 in0.0 mm 0.00 in0.0 mm 0.00 in0.0 mm
10:13 PM 23.9°F-4.5°C 27.2°F-2.7°C 73% Calm Calm -- 30.68 in1038.9 mb 0.00 in0.0 mm 0.00 in0.0 mm 0.00 in0.0 mm
10:16 PM 23.9°F-4.5°C 27.4°F-2.6°C 74% Calm Calm -- 30.68 in1038.9 mb 0.00 in0.0 mm 0.00 in0.0 mm 0.00 in0.0 mm
10:19 PM 24.0°F-4.4°C 27.2°F-2.7°C 74% Calm Calm -- 30.68 in1038.9 mb 0.00 in0.0 mm 0.00 in0.0 mm 0.00 in0.0 mm
10:22 PM 24.2°F-4.3°C 27.7°F-2.4°C 75% Calm Calm -- 30.69 in1039.3 mb 0.00 in0.0 mm 0.00 in0.0 mm 0.00 in0.0 mm
10:25 PM 23.9°F-4.5°C 27.3°F-2.6°C 75% Calm Calm -- 30.69 in1039.3 mb 0.00 in0.0 mm 0.00 in0.0 mm 0.00 in0.0 mm
10:28 PM 24.5°F-4.2°C 27.3°F-2.6°C 75% Calm Calm -- 30.69 in1039.3 mb 0.00 in0.0 mm 0.00 in0.0 mm 0.00 in0.0 mm
10:31 PM 24.8°F-4.0°C 27.4°F-2.6°C 75% Calm Calm -- 30.69 in1039.3 mb 0.00 in0.0 mm 0.00 in0.0 mm 0.00 in0.0 mm
10:34 PM 24.4°F-4.2°C 27.2°F-2.7°C 75% Calm Calm -- 30.68 in1038.9 mb 0.00 in0.0 mm 0.00 in0.0 mm 0.00 in0.0 mm
10:37 PM 24.7°F-4.1°C 27.1°F-2.7°C 75% Calm Calm -- 30.69 in1039.3 mb 0.00 in0.0 mm 0.00 in0.0 mm 0.00 in0.0 mm
10:40 PM 24.5°F-4.2°C 27.2°F-2.7°C 74% Calm Calm -- 30.68 in1038.9 mb 0.00 in0.0 mm 0.00 in0.0 mm 0.00 in0.0 mm
10:43 PM 24.7°F-4.1°C 27.0°F-2.8°C 75% Calm Calm -- 30.68 in1038.9 mb 0.00 in0.0 mm 0.00 in0.0 mm 0.00 in0.0 mm
10:46 PM 23.8°F-4.6°C 26.9°F-2.8°C 74% Calm Calm -- 30.68 in1038.9 mb 0.00 in0.0 mm 0.00 in0.0 mm 0.00 in0.0 mm
10:49 PM 23.7°F-4.6°C 27.0°F-2.8°C 75% Calm Calm -- 30.68 in1038.9 mb 0.00 in0.0 mm 0.00 in0.0 mm 0.00 in0.0 mm
10:52 PM 23.9°F-4.5°C 27.0°F-2.8°C 75% Calm Calm -- 30.68 in1038.9 mb 0.00 in0.0 mm 0.00 in0.0 mm 0.00 in0.0 mm
10:55 PM 23.7°F-4.6°C 27.1°F-2.7°C 75% Calm Calm -- 30.68 in1038.9 mb 0.00 in0.0 mm 0.00 in0.0 mm 0.00 in0.0 mm
10:58 PM 23.9°F-4.5°C 27.0°F-2.8°C 75% Calm Calm -- 30.68 in1038.9 mb 0.00 in0.0 mm 0.00 in0.0 mm 0.00 in0.0 mm
11:01 PM 24.1°F-4.4°C 26.7°F-2.9°C 75% Calm Calm -- 30.68 in1038.9 mb 0.00 in0.0 mm 0.00 in0.0 mm 0.00 in0.0 mm
11:04 PM 23.6°F-4.7°C 26.7°F-2.9°C 75% Calm Calm -- 30.67 in1038.6 mb 0.00 in0.0 mm 0.00 in0.0 mm 0.00 in0.0 mm
11:07 PM 23.7°F-4.6°C 26.7°F-2.9°C 75% Calm Calm -- 30.68 in1038.9 mb 0.00 in0.0 mm 0.00 in0.0 mm 0.00 in0.0 mm
11:10 PM 23.8°F-4.6°C 26.7°F-2.9°C 75% Calm Calm -- 30.68 in1038.9 mb 0.00 in0.0 mm 0.00 in0.0 mm 0.00 in0.0 mm
11:13 PM 23.8°F-4.6°C 26.5°F-3.1°C 75% Calm Calm -- 30.68 in1038.9 mb 0.00 in0.0 mm 0.00 in0.0 mm 0.00 in0.0 mm
11:16 PM 23.9°F-4.5°C 26.6°F-3.0°C 75% Calm Calm -- 30.67 in1038.6 mb 0.00 in0.0 mm 0.00 in0.0 mm 0.00 in0.0 mm
11:19 PM 23.7°F-4.6°C 26.5°F-3.1°C 75% Calm Calm -- 30.68 in1038.9 mb 0.00 in0.0 mm 0.00 in0.0 mm 0.00 in0.0 mm
11:22 PM 23.6°F-4.7°C 26.3°F-3.2°C 75% Calm Calm -- 30.68 in1038.9 mb 0.00 in0.0 mm 0.00 in0.0 mm 0.00 in0.0 mm
11:25 PM 23.3°F-4.8°C 26.6°F-3.0°C 75% Calm Calm -- 30.68 in1038.9 mb 0.00 in0.0 mm 0.00 in0.0 mm 0.00 in0.0 mm
11:28 PM 23.3°F-4.8°C 26.2°F-3.2°C 75% Calm Calm -- 30.69 in1039.3 mb 0.00 in0.0 mm 0.00 in0.0 mm 0.00 in0.0 mm
11:31 PM 23.5°F-4.7°C 26.0°F-3.3°C 74% Calm Calm -- 30.68 in1038.9 mb 0.00 in0.0 mm 0.00 in0.0 mm 0.00 in0.0 mm
11:34 PM 23.5°F-4.7°C 26.1°F-3.3°C 75% Calm Calm -- 30.68 in1038.9 mb 0.00 in0.0 mm 0.00 in0.0 mm 0.00 in0.0 mm
11:37 PM 23.1°F-4.9°C 26.2°F-3.2°C 76% Calm Calm -- 30.68 in1038.9 mb 0.00 in0.0 mm 0.00 in0.0 mm 0.00 in0.0 mm
11:40 PM 23.3°F-4.8°C 26.4°F-3.1°C 76% Calm Calm -- 30.68 in1038.9 mb 0.00 in0.0 mm 0.00 in0.0 mm 0.00 in0.0 mm
11:43 PM 23.1°F-4.9°C 26.3°F-3.2°C 75% Calm Calm -- 30.68 in1038.9 mb 0.00 in0.0 mm 0.00 in0.0 mm 0.00 in0.0 mm
11:46 PM 23.1°F-4.9°C 26.2°F-3.2°C 76% Calm Calm -- 30.68 in1038.9 mb 0.00 in0.0 mm 0.00 in0.0 mm 0.00 in0.0 mm
11:49 PM 22.6°F-5.2°C 26.5°F-3.1°C 76% Calm Calm -- 30.68 in1038.9 mb 0.00 in0.0 mm 0.00 in0.0 mm 0.00 in0.0 mm
11:52 PM 23.2°F-4.9°C 26.1°F-3.3°C 76% Calm Calm -- 30.68 in1038.9 mb 0.00 in0.0 mm 0.00 in0.0 mm 0.00 in0.0 mm
11:55 PM 23.3°F-4.8°C 26.1°F-3.3°C 76% Calm Calm -- 30.67 in1038.6 mb 0.00 in0.0 mm 0.00 in0.0 mm 0.00 in0.0 mm
11:58 PM 23.2°F-4.9°C 26.1°F-3.3°C 76% Calm Calm -- 30.68 in1038.9 mb 0.00 in0.0 mm 0.00 in0.0 mm 0.00 in0.0 mm